<?xml version="1.0" encoding="UTF-8" standalone="no" ?>
<gpx xmlns="http://www.topografix.com/GPX/1/1" xmlns:xsi="http://www.w3.org/2001/XMLSchema-instance" xsi:schemaLocation="http://www.topografix.com/GPX/1/1 http://www.topografix.com/GPX/1/1/gpx.xsd" version="1.1" creator="VisuGPX - https://www.visugpx.com">
  <metadata>
    <name>ParrosTrebeurfen58</name>
  </metadata>
  <trk>
    <name><![CDATA[ParrosTrebeurfen58_1]]></name>
    <extensions>
      <line xmlns="http://www.topografix.com/GPX/gpx_style/0/2">
        <color>0000FF</color>
        <width>5</width>
      </line>
    </extensions>
    <trkseg>
      <trkpt lat="48.83189" lon="-3.48509">
        <ele>9</ele>
        <time>2021-03-04T15:26:54.000Z</time>
      </trkpt>
      <trkpt lat="48.83175" lon="-3.48512">
        <ele>9</ele>
        <time>2021-03-04T15:26:57.000Z</time>
      </trkpt>
      <trkpt lat="48.83166" lon="-3.48518">
        <ele>9</ele>
        <time>2021-03-04T15:26:58.000Z</time>
      </trkpt>
      <trkpt lat="48.83141" lon="-3.48526">
        <ele>9</ele>
        <time>2021-03-04T15:27:03.000Z</time>
      </trkpt>
      <trkpt lat="48.83138" lon="-3.48525">
        <ele>9</ele>
        <time>2021-03-04T15:27:03.000Z</time>
      </trkpt>
      <trkpt lat="48.8313" lon="-3.48495">
        <ele>9</ele>
        <time>2021-03-04T15:27:07.000Z</time>
      </trkpt>
      <trkpt lat="48.83112" lon="-3.48493">
        <ele>10</ele>
        <time>2021-03-04T15:27:10.000Z</time>
      </trkpt>
      <trkpt lat="48.831" lon="-3.48523">
        <ele>10</ele>
        <time>2021-03-04T15:27:14.000Z</time>
      </trkpt>
      <trkpt lat="48.83093" lon="-3.48533">
        <ele>10</ele>
        <time>2021-03-04T15:27:16.000Z</time>
      </trkpt>
      <trkpt lat="48.83082" lon="-3.48519">
        <ele>10</ele>
        <time>2021-03-04T15:27:19.000Z</time>
      </trkpt>
      <trkpt lat="48.83077" lon="-3.48511">
        <ele>10</ele>
        <time>2021-03-04T15:27:20.000Z</time>
      </trkpt>
      <trkpt lat="48.83076" lon="-3.48484">
        <ele>10</ele>
        <time>2021-03-04T15:27:23.000Z</time>
      </trkpt>
      <trkpt lat="48.83061" lon="-3.48471">
        <ele>10</ele>
        <time>2021-03-04T15:27:26.000Z</time>
      </trkpt>
      <trkpt lat="48.83022" lon="-3.48458">
        <ele>10</ele>
        <time>2021-03-04T15:27:33.000Z</time>
      </trkpt>
      <trkpt lat="48.82961" lon="-3.48425">
        <ele>10</ele>
        <time>2021-03-04T15:27:45.000Z</time>
      </trkpt>
      <trkpt lat="48.82934" lon="-3.48416">
        <ele>9</ele>
        <time>2021-03-04T15:27:50.000Z</time>
      </trkpt>
      <trkpt lat="48.82908" lon="-3.48411">
        <ele>8</ele>
        <time>2021-03-04T15:27:54.000Z</time>
      </trkpt>
      <trkpt lat="48.82889" lon="-3.48403">
        <ele>9</ele>
        <time>2021-03-04T15:27:58.000Z</time>
      </trkpt>
      <trkpt lat="48.82839" lon="-3.48374">
        <ele>12</ele>
        <time>2021-03-04T15:28:08.000Z</time>
      </trkpt>
      <trkpt lat="48.82781" lon="-3.48347">
        <ele>15</ele>
        <time>2021-03-04T15:28:18.000Z</time>
      </trkpt>
      <trkpt lat="48.82771" lon="-3.4834">
        <ele>16</ele>
        <time>2021-03-04T15:28:20.000Z</time>
      </trkpt>
      <trkpt lat="48.82745" lon="-3.48316">
        <ele>17</ele>
        <time>2021-03-04T15:28:26.000Z</time>
      </trkpt>
      <trkpt lat="48.82734" lon="-3.48304">
        <ele>17</ele>
        <time>2021-03-04T15:28:28.000Z</time>
      </trkpt>
      <trkpt lat="48.82707" lon="-3.48263">
        <ele>17</ele>
        <time>2021-03-04T15:28:35.000Z</time>
      </trkpt>
      <trkpt lat="48.82652" lon="-3.48213">
        <ele>16</ele>
        <time>2021-03-04T15:28:46.000Z</time>
      </trkpt>
      <trkpt lat="48.82639" lon="-3.48197">
        <ele>16</ele>
        <time>2021-03-04T15:28:49.000Z</time>
      </trkpt>
      <trkpt lat="48.82593" lon="-3.48137">
        <ele>18</ele>
        <time>2021-03-04T15:29:00.000Z</time>
      </trkpt>
      <trkpt lat="48.82581" lon="-3.48126">
        <ele>18</ele>
        <time>2021-03-04T15:29:03.000Z</time>
      </trkpt>
      <trkpt lat="48.82466" lon="-3.48032">
        <ele>21</ele>
        <time>2021-03-04T15:29:26.000Z</time>
      </trkpt>
      <trkpt lat="48.82435" lon="-3.48005">
        <ele>20</ele>
        <time>2021-03-04T15:29:32.000Z</time>
      </trkpt>
      <trkpt lat="48.82424" lon="-3.47993">
        <ele>20</ele>
        <time>2021-03-04T15:29:35.000Z</time>
      </trkpt>
      <trkpt lat="48.82398" lon="-3.47993">
        <ele>20</ele>
        <time>2021-03-04T15:29:39.000Z</time>
      </trkpt>
      <trkpt lat="48.82397" lon="-3.48006">
        <ele>20</ele>
        <time>2021-03-04T15:29:41.000Z</time>
      </trkpt>
      <trkpt lat="48.82395" lon="-3.48032">
        <ele>20</ele>
        <time>2021-03-04T15:29:44.000Z</time>
      </trkpt>
      <trkpt lat="48.82392" lon="-3.48052">
        <ele>20</ele>
        <time>2021-03-04T15:29:46.000Z</time>
      </trkpt>
      <trkpt lat="48.8238" lon="-3.48135">
        <ele>20</ele>
        <time>2021-03-04T15:29:56.000Z</time>
      </trkpt>
      <trkpt lat="48.82369" lon="-3.48242">
        <ele>23</ele>
        <time>2021-03-04T15:30:09.000Z</time>
      </trkpt>
      <trkpt lat="48.82358" lon="-3.48345">
        <ele>21</ele>
        <time>2021-03-04T15:30:21.000Z</time>
      </trkpt>
      <trkpt lat="48.82348" lon="-3.48438">
        <ele>17</ele>
        <time>2021-03-04T15:30:32.000Z</time>
      </trkpt>
      <trkpt lat="48.82349" lon="-3.48477">
        <ele>18</ele>
        <time>2021-03-04T15:30:37.000Z</time>
      </trkpt>
      <trkpt lat="48.82355" lon="-3.48519">
        <ele>17</ele>
        <time>2021-03-04T15:30:42.000Z</time>
      </trkpt>
      <trkpt lat="48.82361" lon="-3.48534">
        <ele>17</ele>
        <time>2021-03-04T15:30:44.000Z</time>
      </trkpt>
      <trkpt lat="48.8248" lon="-3.48755">
        <ele>12</ele>
        <time>2021-03-04T15:31:17.000Z</time>
      </trkpt>
      <trkpt lat="48.82491" lon="-3.4878">
        <ele>11</ele>
        <time>2021-03-04T15:31:21.000Z</time>
      </trkpt>
      <trkpt lat="48.825" lon="-3.48803">
        <ele>9</ele>
        <time>2021-03-04T15:31:25.000Z</time>
      </trkpt>
      <trkpt lat="48.825" lon="-3.48804">
        <ele>2</ele>
        <time>2015-07-10T08:15:13.532Z</time>
      </trkpt>
      <trkpt lat="48.82508" lon="-3.48826">
        <ele>2</ele>
        <time>2015-07-10T08:15:14.806Z</time>
      </trkpt>
      <trkpt lat="48.82517" lon="-3.48858">
        <ele>1.4</ele>
        <time>2015-07-10T08:15:17.366Z</time>
      </trkpt>
      <trkpt lat="48.82521" lon="-3.48875">
        <ele>1</ele>
        <time>2015-07-10T08:15:18.671Z</time>
      </trkpt>
      <trkpt lat="48.82525" lon="-3.48892">
        <ele>0.6</ele>
        <time>2015-07-10T08:15:19.989Z</time>
      </trkpt>
      <trkpt lat="48.82529" lon="-3.48909">
        <ele>0.2</ele>
        <time>2015-07-10T08:15:21.295Z</time>
      </trkpt>
      <trkpt lat="48.82534" lon="-3.48925">
        <ele>6</ele>
        <time>2015-07-10T08:15:22.597Z</time>
      </trkpt>
      <trkpt lat="48.82538" lon="-3.48942">
        <ele>4.7</ele>
        <time>2015-07-10T08:15:23.903Z</time>
      </trkpt>
      <trkpt lat="48.82542" lon="-3.48958">
        <ele>3.2</ele>
        <time>2015-07-10T08:15:25.199Z</time>
      </trkpt>
      <trkpt lat="48.82546" lon="-3.48975">
        <ele>2.1</ele>
        <time>2015-07-10T08:15:26.474Z</time>
      </trkpt>
      <trkpt lat="48.8255" lon="-3.48991">
        <ele>2.5</ele>
        <time>2015-07-10T08:15:27.739Z</time>
      </trkpt>
      <trkpt lat="48.82554" lon="-3.49007">
        <ele>1</ele>
        <time>2015-07-10T08:15:28.982Z</time>
      </trkpt>
      <trkpt lat="48.82557" lon="-3.49023">
        <ele>1</ele>
        <time>2015-07-10T08:15:30.228Z</time>
      </trkpt>
      <trkpt lat="48.8256" lon="-3.4904">
        <ele>1</ele>
        <time>2015-07-10T08:15:31.504Z</time>
      </trkpt>
      <trkpt lat="48.82563" lon="-3.49057">
        <ele>1</ele>
        <time>2015-07-10T08:15:32.791Z</time>
      </trkpt>
      <trkpt lat="48.82566" lon="-3.49074">
        <ele>1</ele>
        <time>2015-07-10T08:15:34.060Z</time>
      </trkpt>
      <trkpt lat="48.82567" lon="-3.49091">
        <ele>2.6</ele>
        <time>2015-07-10T08:15:35.349Z</time>
      </trkpt>
      <trkpt lat="48.82568" lon="-3.49109">
        <ele>2.7</ele>
        <time>2015-07-10T08:15:36.633Z</time>
      </trkpt>
      <trkpt lat="48.82568" lon="-3.49125">
        <ele>2.8</ele>
        <time>2015-07-10T08:15:37.866Z</time>
      </trkpt>
      <trkpt lat="48.82567" lon="-3.49142">
        <ele>2.9</ele>
        <time>2015-07-10T08:15:39.085Z</time>
      </trkpt>
      <trkpt lat="48.82566" lon="-3.49159">
        <ele>3</ele>
        <time>2015-07-10T08:15:40.314Z</time>
      </trkpt>
      <trkpt lat="48.82564" lon="-3.49175">
        <ele>2.9</ele>
        <time>2015-07-10T08:15:41.537Z</time>
      </trkpt>
      <trkpt lat="48.8256" lon="-3.49191">
        <ele>2.9</ele>
        <time>2015-07-10T08:15:42.761Z</time>
      </trkpt>
      <trkpt lat="48.82557" lon="-3.49207">
        <ele>2.8</ele>
        <time>2015-07-10T08:15:44.018Z</time>
      </trkpt>
      <trkpt lat="48.82552" lon="-3.49224">
        <ele>2.8</ele>
        <time>2015-07-10T08:15:45.331Z</time>
      </trkpt>
      <trkpt lat="48.82547" lon="-3.4924">
        <ele>2.9</ele>
        <time>2015-07-10T08:15:46.650Z</time>
      </trkpt>
      <trkpt lat="48.82542" lon="-3.49256">
        <ele>3.1</ele>
        <time>2015-07-10T08:15:47.967Z</time>
      </trkpt>
      <trkpt lat="48.82536" lon="-3.49273">
        <ele>3.4</ele>
        <time>2015-07-10T08:15:49.314Z</time>
      </trkpt>
      <trkpt lat="48.82531" lon="-3.49289">
        <ele>3.7</ele>
        <time>2015-07-10T08:15:50.666Z</time>
      </trkpt>
      <trkpt lat="48.82525" lon="-3.49306">
        <ele>4.1</ele>
        <time>2015-07-10T08:15:52.019Z</time>
      </trkpt>
      <trkpt lat="48.8252" lon="-3.49321">
        <ele>4.4</ele>
        <time>2015-07-10T08:15:53.330Z</time>
      </trkpt>
      <trkpt lat="48.82514" lon="-3.49337">
        <ele>4.7</ele>
        <time>2015-07-10T08:15:54.652Z</time>
      </trkpt>
      <trkpt lat="48.82509" lon="-3.49354">
        <ele>5.1</ele>
        <time>2015-07-10T08:15:55.995Z</time>
      </trkpt>
      <trkpt lat="48.82503" lon="-3.49371">
        <ele>5.4</ele>
        <time>2015-07-10T08:15:57.386Z</time>
      </trkpt>
      <trkpt lat="48.82498" lon="-3.49388">
        <ele>5.7</ele>
        <time>2015-07-10T08:15:58.793Z</time>
      </trkpt>
      <trkpt lat="48.82492" lon="-3.49405">
        <ele>5.9</ele>
        <time>2015-07-10T08:16:00.183Z</time>
      </trkpt>
      <trkpt lat="48.82487" lon="-3.49422">
        <ele>6.2</ele>
        <time>2015-07-10T08:16:01.500Z</time>
      </trkpt>
      <trkpt lat="48.82483" lon="-3.49437">
        <ele>6.4</ele>
        <time>2015-07-10T08:16:02.759Z</time>
      </trkpt>
      <trkpt lat="48.82478" lon="-3.49453">
        <ele>6.5</ele>
        <time>2015-07-10T08:16:04.019Z</time>
      </trkpt>
      <trkpt lat="48.82423" lon="-3.49451">
        <ele>6.6</ele>
        <time>2015-07-10T08:16:10.167Z</time>
      </trkpt>
      <trkpt lat="48.82343" lon="-3.49416">
        <ele>7</ele>
        <time>2015-07-10T08:16:19.373Z</time>
      </trkpt>
      <trkpt lat="48.82317" lon="-3.49404">
        <ele>7.8</ele>
        <time>2015-07-10T08:16:22.486Z</time>
      </trkpt>
      <trkpt lat="48.82272" lon="-3.49345">
        <ele>9.3</ele>
        <time>2015-07-10T08:16:28.997Z</time>
      </trkpt>
      <trkpt lat="48.82243" lon="-3.49335">
        <ele>10.3</ele>
        <time>2015-07-10T08:16:32.394Z</time>
      </trkpt>
      <trkpt lat="48.82201" lon="-3.49378">
        <ele>10.7</ele>
        <time>2015-07-10T08:16:37.987Z</time>
      </trkpt>
      <trkpt lat="48.82157" lon="-3.49407">
        <ele>9.4</ele>
        <time>2015-07-10T08:16:43.367Z</time>
      </trkpt>
      <trkpt lat="48.8214" lon="-3.49437">
        <ele>8.4</ele>
        <time>2015-07-10T08:16:46.193Z</time>
      </trkpt>
      <trkpt lat="48.82098" lon="-3.49493">
        <ele>7.8</ele>
        <time>2015-07-10T08:16:52.436Z</time>
      </trkpt>
      <trkpt lat="48.82066" lon="-3.49568">
        <ele>6.1</ele>
        <time>2015-07-10T08:16:58.951Z</time>
      </trkpt>
      <trkpt lat="48.82062" lon="-3.49654">
        <ele>6</ele>
        <time>2015-07-10T08:17:05.309Z</time>
      </trkpt>
      <trkpt lat="48.82012" lon="-3.49853">
        <ele>8.4</ele>
        <time>2015-07-10T08:17:20.918Z</time>
      </trkpt>
      <trkpt lat="48.81937" lon="-3.50003">
        <ele>13.5</ele>
        <time>2015-07-10T08:17:34.682Z</time>
      </trkpt>
      <trkpt lat="48.81927" lon="-3.5005">
        <ele>13.7</ele>
        <time>2015-07-10T08:17:38.334Z</time>
      </trkpt>
      <trkpt lat="48.81881" lon="-3.50088">
        <ele>15.7</ele>
        <time>2015-07-10T08:17:44.158Z</time>
      </trkpt>
      <trkpt lat="48.81856" lon="-3.50185">
        <ele>17.1</ele>
        <time>2015-07-10T08:17:51.817Z</time>
      </trkpt>
      <trkpt lat="48.81833" lon="-3.50246">
        <ele>18.1</ele>
        <time>2015-07-10T08:17:56.911Z</time>
      </trkpt>
      <trkpt lat="48.81769" lon="-3.50296">
        <ele>18.5</ele>
        <time>2015-07-10T08:18:04.944Z</time>
      </trkpt>
      <trkpt lat="48.81769" lon="-3.50466">
        <ele>13.8</ele>
        <time>2015-07-10T08:18:17.414Z</time>
      </trkpt>
      <trkpt lat="48.81823" lon="-3.50541">
        <ele>13</ele>
        <time>2015-07-10T08:18:25.592Z</time>
      </trkpt>
      <trkpt lat="48.81772" lon="-3.51079">
        <ele>12.3</ele>
        <time>2015-07-10T08:19:05.406Z</time>
      </trkpt>
      <trkpt lat="48.81748" lon="-3.51141">
        <ele>13.4</ele>
        <time>2015-07-10T08:19:10.694Z</time>
      </trkpt>
      <trkpt lat="48.81753" lon="-3.51276">
        <ele>14.4</ele>
        <time>2015-07-10T08:19:20.579Z</time>
      </trkpt>
      <trkpt lat="48.81732" lon="-3.51454">
        <ele>10.7</ele>
        <time>2015-07-10T08:19:33.844Z</time>
      </trkpt>
      <trkpt lat="48.81739" lon="-3.51516">
        <ele>10.8</ele>
        <time>2015-07-10T08:19:38.402Z</time>
      </trkpt>
      <trkpt lat="48.8159" lon="-3.5158">
        <ele>12.8</ele>
        <time>2015-07-10T08:19:55.637Z</time>
      </trkpt>
      <trkpt lat="48.81428" lon="-3.51785">
        <ele>14.7</ele>
        <time>2015-07-10T08:20:19.022Z</time>
      </trkpt>
      <trkpt lat="48.81348" lon="-3.51856">
        <ele>16.5</ele>
        <time>2015-07-10T08:20:29.335Z</time>
      </trkpt>
      <trkpt lat="48.81085" lon="-3.51967">
        <ele>25.2</ele>
        <time>2015-07-10T08:20:59.706Z</time>
      </trkpt>
      <trkpt lat="48.81039" lon="-3.52511">
        <ele>17.6</ele>
        <time>2015-07-10T08:21:39.872Z</time>
      </trkpt>
      <trkpt lat="48.8096" lon="-3.52533">
        <ele>17.6</ele>
        <time>2015-07-10T08:21:48.778Z</time>
      </trkpt>
      <trkpt lat="48.80879" lon="-3.52571">
        <ele>18.5</ele>
        <time>2015-07-10T08:21:58.210Z</time>
      </trkpt>
      <trkpt lat="48.8084" lon="-3.52596">
        <ele>20.7</ele>
        <time>2015-07-10T08:22:02.949Z</time>
      </trkpt>
      <trkpt lat="48.80795" lon="-3.52733">
        <ele>25.6</ele>
        <time>2015-07-10T08:22:14.192Z</time>
      </trkpt>
      <trkpt lat="48.80752" lon="-3.52699">
        <ele>29.2</ele>
        <time>2015-07-10T08:22:19.620Z</time>
      </trkpt>
      <trkpt lat="48.80656" lon="-3.52618">
        <ele>33.9</ele>
        <time>2015-07-10T08:22:31.796Z</time>
      </trkpt>
      <trkpt lat="48.80579" lon="-3.52587">
        <ele>37.8</ele>
        <time>2015-07-10T08:22:40.724Z</time>
      </trkpt>
      <trkpt lat="48.8056" lon="-3.52612">
        <ele>36.4</ele>
        <time>2015-07-10T08:22:43.505Z</time>
      </trkpt>
      <trkpt lat="48.80539" lon="-3.52638">
        <ele>35.2</ele>
        <time>2015-07-10T08:22:46.500Z</time>
      </trkpt>
      <trkpt lat="48.80514" lon="-3.52576">
        <ele>37.3</ele>
        <time>2015-07-10T08:22:51.868Z</time>
      </trkpt>
      <trkpt lat="48.804" lon="-3.524">
        <ele>40.9</ele>
        <time>2015-07-10T08:23:09.965Z</time>
      </trkpt>
      <trkpt lat="48.80298" lon="-3.52277">
        <ele>44</ele>
        <time>2015-07-10T08:23:24.412Z</time>
      </trkpt>
      <trkpt lat="48.80192" lon="-3.52261">
        <ele>39.2</ele>
        <time>2015-07-10T08:23:36.338Z</time>
      </trkpt>
      <trkpt lat="48.80101" lon="-3.52278">
        <ele>37.2</ele>
        <time>2015-07-10T08:23:46.463Z</time>
      </trkpt>
      <trkpt lat="48.79874" lon="-3.52263">
        <ele>34.2</ele>
        <time>2015-07-10T08:24:11.797Z</time>
      </trkpt>
      <trkpt lat="48.79669" lon="-3.52257">
        <ele>32.8</ele>
        <time>2015-07-10T08:24:34.526Z</time>
      </trkpt>
      <trkpt lat="48.79594" lon="-3.52288">
        <ele>34.6</ele>
        <time>2015-07-10T08:24:43.234Z</time>
      </trkpt>
      <trkpt lat="48.79404" lon="-3.52161">
        <ele>35.9</ele>
        <time>2015-07-10T08:25:06.279Z</time>
      </trkpt>
      <trkpt lat="48.79242" lon="-3.52182">
        <ele>35.9</ele>
        <time>2015-07-10T08:25:24.381Z</time>
      </trkpt>
      <trkpt lat="48.7885" lon="-3.52013">
        <ele>40.6</ele>
        <time>2015-07-10T08:26:09.734Z</time>
      </trkpt>
      <trkpt lat="48.78713" lon="-3.52057">
        <ele>45.8</ele>
        <time>2015-07-10T08:26:25.326Z</time>
      </trkpt>
      <trkpt lat="48.7853" lon="-3.51878">
        <ele>51.1</ele>
        <time>2015-07-10T08:26:49.509Z</time>
      </trkpt>
      <trkpt lat="48.78387" lon="-3.51941">
        <ele>43.4</ele>
        <time>2015-07-10T08:27:06.026Z</time>
      </trkpt>
      <trkpt lat="48.78253" lon="-3.52097">
        <ele>34.7</ele>
        <time>2015-07-10T08:27:24.833Z</time>
      </trkpt>
      <trkpt lat="48.78236" lon="-3.52322">
        <ele>30.1</ele>
        <time>2015-07-10T08:27:41.425Z</time>
      </trkpt>
      <trkpt lat="48.78208" lon="-3.52468">
        <ele>35</ele>
        <time>2015-07-10T08:27:52.609Z</time>
      </trkpt>
      <trkpt lat="48.78114" lon="-3.52777">
        <ele>35.4</ele>
        <time>2015-07-10T08:28:17.526Z</time>
      </trkpt>
      <trkpt lat="48.78137" lon="-3.52897">
        <ele>30.5</ele>
        <time>2015-07-10T08:28:26.676Z</time>
      </trkpt>
      <trkpt lat="48.78311" lon="-3.53178">
        <ele>21.2</ele>
        <time>2015-07-10T08:28:54.962Z</time>
      </trkpt>
      <trkpt lat="48.78335" lon="-3.53188">
        <ele>21.2</ele>
        <time>2015-07-10T08:28:57.785Z</time>
      </trkpt>
      <trkpt lat="48.78403" lon="-3.53096">
        <ele>26.5</ele>
        <time>2015-07-10T08:29:07.869Z</time>
      </trkpt>
      <trkpt lat="48.78444" lon="-3.53121">
        <ele>30.2</ele>
        <time>2015-07-10T08:29:12.800Z</time>
      </trkpt>
      <trkpt lat="48.78469" lon="-3.53292">
        <ele>36.5</ele>
        <time>2015-07-10T08:29:25.647Z</time>
      </trkpt>
      <trkpt lat="48.78485" lon="-3.53373">
        <ele>35.5</ele>
        <time>2015-07-10T08:29:31.890Z</time>
      </trkpt>
      <trkpt lat="48.78591" lon="-3.53593">
        <ele>34</ele>
        <time>2015-07-10T08:29:51.855Z</time>
      </trkpt>
      <trkpt lat="48.78663" lon="-3.5394">
        <ele>36.5</ele>
        <time>2015-07-10T08:30:18.477Z</time>
      </trkpt>
      <trkpt lat="48.78778" lon="-3.54108">
        <ele>37.1</ele>
        <time>2015-07-10T08:30:36.172Z</time>
      </trkpt>
      <trkpt lat="48.78848" lon="-3.54379">
        <ele>43.9</ele>
        <time>2015-07-10T08:30:57.509Z</time>
      </trkpt>
      <trkpt lat="48.7888" lon="-3.54769">
        <ele>35.6</ele>
        <time>2015-07-10T08:31:26.357Z</time>
      </trkpt>
      <trkpt lat="48.7889" lon="-3.54995">
        <ele>24.8</ele>
        <time>2015-07-10T08:31:42.952Z</time>
      </trkpt>
      <trkpt lat="48.78874" lon="-3.55127">
        <ele>11.2</ele>
        <time>2015-07-10T08:31:52.848Z</time>
      </trkpt>
      <trkpt lat="48.78847" lon="-3.55244">
        <ele>6.8</ele>
        <time>2015-07-10T08:32:01.997Z</time>
      </trkpt>
      <trkpt lat="48.7884" lon="-3.55286">
        <ele>7.3</ele>
        <time>2015-07-10T08:32:05.131Z</time>
      </trkpt>
      <trkpt lat="48.78852" lon="-3.55416">
        <ele>7.5</ele>
        <time>2015-07-10T08:32:14.749Z</time>
      </trkpt>
      <trkpt lat="48.78855" lon="-3.55472">
        <ele>7.5</ele>
        <time>2015-07-10T08:32:18.870Z</time>
      </trkpt>
      <trkpt lat="48.78846" lon="-3.55545">
        <ele>7.6</ele>
        <time>2015-07-10T08:32:24.370Z</time>
      </trkpt>
      <trkpt lat="48.78882" lon="-3.55572">
        <ele>6.3</ele>
        <time>2015-07-10T08:32:28.869Z</time>
      </trkpt>
      <trkpt lat="48.78904" lon="-3.55616">
        <ele>5.9</ele>
        <time>2015-07-10T08:32:32.907Z</time>
      </trkpt>
      <trkpt lat="48.78925" lon="-3.55647">
        <ele>5.6</ele>
        <time>2015-07-10T08:32:36.168Z</time>
      </trkpt>
      <trkpt lat="48.79006" lon="-3.55705">
        <ele>4.2</ele>
        <time>2015-07-10T08:32:46.126Z</time>
      </trkpt>
      <trkpt lat="48.79028" lon="-3.55744">
        <ele>3.9</ele>
        <time>2015-07-10T08:32:49.924Z</time>
      </trkpt>
      <trkpt lat="48.79019" lon="-3.5576">
        <ele>4.5</ele>
        <time>2015-07-10T08:32:51.464Z</time>
      </trkpt>
      <trkpt lat="48.79014" lon="-3.55771">
        <ele>4.8</ele>
        <time>2015-07-10T08:32:52.441Z</time>
      </trkpt>
      <trkpt lat="48.79009" lon="-3.55784">
        <ele>5.1</ele>
        <time>2015-07-10T08:32:53.540Z</time>
      </trkpt>
      <trkpt lat="48.79005" lon="-3.55798">
        <ele>5.4</ele>
        <time>2015-07-10T08:32:54.689Z</time>
      </trkpt>
      <trkpt lat="48.79001" lon="-3.55814">
        <ele>5.7</ele>
        <time>2015-07-10T08:32:55.926Z</time>
      </trkpt>
      <trkpt lat="48.78998" lon="-3.55832">
        <ele>6</ele>
        <time>2015-07-10T08:32:57.271Z</time>
      </trkpt>
      <trkpt lat="48.78997" lon="-3.55851">
        <ele>6</ele>
        <time>2015-07-10T08:32:58.679Z</time>
      </trkpt>
      <trkpt lat="48.78998" lon="-3.55871">
        <ele>6</ele>
        <time>2015-07-10T08:33:00.168Z</time>
      </trkpt>
      <trkpt lat="48.78999" lon="-3.55892">
        <ele>6</ele>
        <time>2015-07-10T08:33:01.712Z</time>
      </trkpt>
      <trkpt lat="48.78999" lon="-3.55914">
        <ele>6</ele>
        <time>2015-07-10T08:33:03.288Z</time>
      </trkpt>
      <trkpt lat="48.78998" lon="-3.55936">
        <ele>6.3</ele>
        <time>2015-07-10T08:33:04.943Z</time>
      </trkpt>
      <trkpt lat="48.78996" lon="-3.55959">
        <ele>6.5</ele>
        <time>2015-07-10T08:33:06.645Z</time>
      </trkpt>
      <trkpt lat="48.78994" lon="-3.55983">
        <ele>6.8</ele>
        <time>2015-07-10T08:33:08.360Z</time>
      </trkpt>
      <trkpt lat="48.78991" lon="-3.56006">
        <ele>7</ele>
        <time>2015-07-10T08:33:10.073Z</time>
      </trkpt>
      <trkpt lat="48.7899" lon="-3.56029">
        <ele>7</ele>
        <time>2015-07-10T08:33:11.796Z</time>
      </trkpt>
      <trkpt lat="48.78989" lon="-3.56053">
        <ele>6.9</ele>
        <time>2015-07-10T08:33:13.545Z</time>
      </trkpt>
      <trkpt lat="48.78988" lon="-3.56077">
        <ele>6.9</ele>
        <time>2015-07-10T08:33:15.289Z</time>
      </trkpt>
      <trkpt lat="48.78987" lon="-3.561">
        <ele>6.9</ele>
        <time>2015-07-10T08:33:17.016Z</time>
      </trkpt>
      <trkpt lat="48.78985" lon="-3.56124">
        <ele>6.9</ele>
        <time>2015-07-10T08:33:18.774Z</time>
      </trkpt>
      <trkpt lat="48.78983" lon="-3.56148">
        <ele>7</ele>
        <time>2015-07-10T08:33:20.573Z</time>
      </trkpt>
      <trkpt lat="48.7898" lon="-3.56173">
        <ele>6.9</ele>
        <time>2015-07-10T08:33:22.413Z</time>
      </trkpt>
      <trkpt lat="48.78977" lon="-3.56198">
        <ele>6.7</ele>
        <time>2015-07-10T08:33:24.251Z</time>
      </trkpt>
      <trkpt lat="48.78972" lon="-3.56222">
        <ele>6.6</ele>
        <time>2015-07-10T08:33:26.092Z</time>
      </trkpt>
      <trkpt lat="48.78967" lon="-3.56246">
        <ele>6.4</ele>
        <time>2015-07-10T08:33:27.935Z</time>
      </trkpt>
      <trkpt lat="48.78962" lon="-3.56269">
        <ele>6.5</ele>
        <time>2015-07-10T08:33:29.731Z</time>
      </trkpt>
      <trkpt lat="48.78958" lon="-3.56292">
        <ele>6.5</ele>
        <time>2015-07-10T08:33:31.515Z</time>
      </trkpt>
      <trkpt lat="48.78953" lon="-3.56314">
        <ele>6.6</ele>
        <time>2015-07-10T08:33:33.206Z</time>
      </trkpt>
      <trkpt lat="48.78948" lon="-3.56335">
        <ele>6.6</ele>
        <time>2015-07-10T08:33:34.847Z</time>
      </trkpt>
      <trkpt lat="48.78941" lon="-3.56355">
        <ele>6.4</ele>
        <time>2015-07-10T08:33:36.486Z</time>
      </trkpt>
      <trkpt lat="48.78933" lon="-3.56374">
        <ele>6.3</ele>
        <time>2015-07-10T08:33:38.099Z</time>
      </trkpt>
      <trkpt lat="48.78926" lon="-3.56391">
        <ele>6.2</ele>
        <time>2015-07-10T08:33:39.619Z</time>
      </trkpt>
      <trkpt lat="48.78919" lon="-3.56408">
        <ele>6.1</ele>
        <time>2015-07-10T08:33:41.026Z</time>
      </trkpt>
      <trkpt lat="48.78912" lon="-3.56423">
        <ele>6.1</ele>
        <time>2015-07-10T08:33:42.360Z</time>
      </trkpt>
      <trkpt lat="48.78905" lon="-3.56438">
        <ele>6.2</ele>
        <time>2015-07-10T08:33:43.710Z</time>
      </trkpt>
      <trkpt lat="48.78899" lon="-3.56454">
        <ele>6.2</ele>
        <time>2015-07-10T08:33:45.091Z</time>
      </trkpt>
      <trkpt lat="48.78894" lon="-3.56472">
        <ele>6.1</ele>
        <time>2015-07-10T08:33:46.550Z</time>
      </trkpt>
      <trkpt lat="48.7889" lon="-3.56493">
        <ele>6</ele>
        <time>2015-07-10T08:33:48.108Z</time>
      </trkpt>
      <trkpt lat="48.78886" lon="-3.56514">
        <ele>6</ele>
        <time>2015-07-10T08:33:49.736Z</time>
      </trkpt>
      <trkpt lat="48.78883" lon="-3.56536">
        <ele>5.9</ele>
        <time>2015-07-10T08:33:51.418Z</time>
      </trkpt>
      <trkpt lat="48.78879" lon="-3.56559">
        <ele>5.7</ele>
        <time>2015-07-10T08:33:53.127Z</time>
      </trkpt>
      <trkpt lat="48.78876" lon="-3.56581">
        <ele>5.5</ele>
        <time>2015-07-10T08:33:54.778Z</time>
      </trkpt>
      <trkpt lat="48.78873" lon="-3.56603">
        <ele>5.4</ele>
        <time>2015-07-10T08:33:56.402Z</time>
      </trkpt>
      <trkpt lat="48.78871" lon="-3.56624">
        <ele>5.3</ele>
        <time>2015-07-10T08:33:57.967Z</time>
      </trkpt>
      <trkpt lat="48.78868" lon="-3.56644">
        <ele>5.2</ele>
        <time>2015-07-10T08:33:59.455Z</time>
      </trkpt>
      <trkpt lat="48.78865" lon="-3.56661">
        <ele>5</ele>
        <time>2015-07-10T08:34:00.774Z</time>
      </trkpt>
      <trkpt lat="48.78863" lon="-3.56676">
        <ele>5.1</ele>
        <time>2015-07-10T08:34:01.893Z</time>
      </trkpt>
      <trkpt lat="48.78863" lon="-3.5669">
        <ele>5.2</ele>
        <time>2015-07-10T08:34:02.893Z</time>
      </trkpt>
      <trkpt lat="48.78865" lon="-3.56703">
        <ele>5.3</ele>
        <time>2015-07-10T08:34:03.869Z</time>
      </trkpt>
      <trkpt lat="48.78865" lon="-3.56716">
        <ele>5.4</ele>
        <time>2015-07-10T08:34:04.823Z</time>
      </trkpt>
      <trkpt lat="48.78863" lon="-3.5673">
        <ele>5.5</ele>
        <time>2015-07-10T08:34:05.846Z</time>
      </trkpt>
      <trkpt lat="48.78859" lon="-3.56744">
        <ele>5.6</ele>
        <time>2015-07-10T08:34:06.986Z</time>
      </trkpt>
      <trkpt lat="48.78854" lon="-3.56759">
        <ele>5.7</ele>
        <time>2015-07-10T08:34:08.168Z</time>
      </trkpt>
      <trkpt lat="48.78849" lon="-3.56774">
        <ele>5.8</ele>
        <time>2015-07-10T08:34:09.429Z</time>
      </trkpt>
      <trkpt lat="48.78842" lon="-3.56788">
        <ele>5.8</ele>
        <time>2015-07-10T08:34:10.735Z</time>
      </trkpt>
      <trkpt lat="48.78835" lon="-3.56803">
        <ele>6</ele>
        <time>2015-07-10T08:34:12.062Z</time>
      </trkpt>
      <trkpt lat="48.78827" lon="-3.56815">
        <ele>6.3</ele>
        <time>2015-07-10T08:34:13.311Z</time>
      </trkpt>
      <trkpt lat="48.7882" lon="-3.56826">
        <ele>6.8</ele>
        <time>2015-07-10T08:34:14.439Z</time>
      </trkpt>
      <trkpt lat="48.78812" lon="-3.56834">
        <ele>7.3</ele>
        <time>2015-07-10T08:34:15.494Z</time>
      </trkpt>
      <trkpt lat="48.78803" lon="-3.56839">
        <ele>7.8</ele>
        <time>2015-07-10T08:34:16.558Z</time>
      </trkpt>
      <trkpt lat="48.78794" lon="-3.56842">
        <ele>8.4</ele>
        <time>2015-07-10T08:34:17.647Z</time>
      </trkpt>
      <trkpt lat="48.78784" lon="-3.56844">
        <ele>9</ele>
        <time>2015-07-10T08:34:18.769Z</time>
      </trkpt>
      <trkpt lat="48.78773" lon="-3.56845">
        <ele>9.6</ele>
        <time>2015-07-10T08:34:19.924Z</time>
      </trkpt>
      <trkpt lat="48.78763" lon="-3.56846">
        <ele>10.2</ele>
        <time>2015-07-10T08:34:21.040Z</time>
      </trkpt>
      <trkpt lat="48.78755" lon="-3.56848">
        <ele>10.7</ele>
        <time>2015-07-10T08:34:21.999Z</time>
      </trkpt>
      <trkpt lat="48.78748" lon="-3.5685">
        <ele>11.1</ele>
        <time>2015-07-10T08:34:22.755Z</time>
      </trkpt>
      <trkpt lat="48.78742" lon="-3.56854">
        <ele>11.5</ele>
        <time>2015-07-10T08:34:23.489Z</time>
      </trkpt>
      <trkpt lat="48.78735" lon="-3.56859">
        <ele>11.9</ele>
        <time>2015-07-10T08:34:24.314Z</time>
      </trkpt>
      <trkpt lat="48.78728" lon="-3.56866">
        <ele>12.4</ele>
        <time>2015-07-10T08:34:25.282Z</time>
      </trkpt>
      <trkpt lat="48.78721" lon="-3.56875">
        <ele>12.9</ele>
        <time>2015-07-10T08:34:26.282Z</time>
      </trkpt>
      <trkpt lat="48.78715" lon="-3.56886">
        <ele>13.4</ele>
        <time>2015-07-10T08:34:27.341Z</time>
      </trkpt>
      <trkpt lat="48.78708" lon="-3.56897">
        <ele>13.9</ele>
        <time>2015-07-10T08:34:28.449Z</time>
      </trkpt>
      <trkpt lat="48.78702" lon="-3.5691">
        <ele>14.4</ele>
        <time>2015-07-10T08:34:29.647Z</time>
      </trkpt>
      <trkpt lat="48.78695" lon="-3.56924">
        <ele>15</ele>
        <time>2015-07-10T08:34:30.914Z</time>
      </trkpt>
      <trkpt lat="48.78689" lon="-3.56939">
        <ele>15.7</ele>
        <time>2015-07-10T08:34:32.198Z</time>
      </trkpt>
      <trkpt lat="48.78683" lon="-3.56954">
        <ele>16.3</ele>
        <time>2015-07-10T08:34:33.467Z</time>
      </trkpt>
      <trkpt lat="48.78678" lon="-3.56968">
        <ele>16.8</ele>
        <time>2015-07-10T08:34:34.651Z</time>
      </trkpt>
      <trkpt lat="48.78674" lon="-3.5698">
        <ele>17.3</ele>
        <time>2015-07-10T08:34:35.655Z</time>
      </trkpt>
      <trkpt lat="48.7867" lon="-3.56989">
        <ele>17.6</ele>
        <time>2015-07-10T08:34:36.400Z</time>
      </trkpt>
      <trkpt lat="48.7867" lon="-3.56996">
        <ele>17.7</ele>
        <time>2015-07-10T08:34:36.925Z</time>
      </trkpt>
      <trkpt lat="48.7867" lon="-3.57">
        <ele>17.7</ele>
        <time>2015-07-10T08:34:37.247Z</time>
      </trkpt>
      <trkpt lat="48.78671" lon="-3.57002">
        <ele>17.7</ele>
        <time>2015-07-10T08:34:37.369Z</time>
      </trkpt>
      <trkpt lat="48.78671" lon="-3.57001">
        <ele>17.7</ele>
        <time>2015-07-10T08:34:37.449Z</time>
      </trkpt>
      <trkpt lat="48.78672" lon="-3.57001">
        <ele>17.6</ele>
        <time>2015-07-10T08:34:37.476Z</time>
      </trkpt>
      <trkpt lat="48.78672" lon="-3.57">
        <ele>17.6</ele>
        <time>2015-07-10T08:34:37.584Z</time>
      </trkpt>
      <trkpt lat="48.78673" lon="-3.57">
        <ele>17.6</ele>
        <time>2015-07-10T08:34:37.622Z</time>
      </trkpt>
      <trkpt lat="48.78673" lon="-3.57001">
        <ele>17.5</ele>
        <time>2015-07-10T08:34:37.710Z</time>
      </trkpt>
      <trkpt lat="48.78673" lon="-3.57003">
        <ele>17.5</ele>
        <time>2015-07-10T08:34:37.882Z</time>
      </trkpt>
      <trkpt lat="48.78671" lon="-3.57007">
        <ele>17.6</ele>
        <time>2015-07-10T08:34:38.169Z</time>
      </trkpt>
      <trkpt lat="48.78668" lon="-3.57009">
        <ele>17.8</ele>
        <time>2015-07-10T08:34:38.543Z</time>
      </trkpt>
      <trkpt lat="48.78664" lon="-3.5701">
        <ele>18.1</ele>
        <time>2015-07-10T08:34:39.029Z</time>
      </trkpt>
      <trkpt lat="48.78659" lon="-3.5701">
        <ele>18.7</ele>
        <time>2015-07-10T08:34:39.608Z</time>
      </trkpt>
      <trkpt lat="48.78476" lon="-3.56998">
        <ele>37.7</ele>
        <time>2015-07-10T08:34:59.980Z</time>
      </trkpt>
      <trkpt lat="48.7846" lon="-3.5707">
        <ele>37.6</ele>
        <time>2015-07-10T08:35:05.564Z</time>
      </trkpt>
      <trkpt lat="48.78426" lon="-3.57099">
        <ele>39.6</ele>
        <time>2015-07-10T08:35:09.906Z</time>
      </trkpt>
      <trkpt lat="48.78429" lon="-3.57335">
        <ele>35.4</ele>
        <time>2015-07-10T08:35:27.190Z</time>
      </trkpt>
      <trkpt lat="48.7838" lon="-3.57376">
        <ele>31.1</ele>
        <time>2015-07-10T08:35:33.436Z</time>
      </trkpt>
      <trkpt lat="48.78269" lon="-3.57353">
        <ele>26.2</ele>
        <time>2015-07-10T08:35:45.914Z</time>
      </trkpt>
      <trkpt lat="48.7828" lon="-3.57452">
        <ele>14.7</ele>
        <time>2015-07-10T08:35:53.425Z</time>
      </trkpt>
      <trkpt lat="48.78225" lon="-3.57723">
        <ele>5.4</ele>
        <time>2015-07-10T08:36:14.178Z</time>
      </trkpt>
      <trkpt lat="48.78244" lon="-3.57804">
        <ele>6.7</ele>
        <time>2015-07-10T08:36:20.463Z</time>
      </trkpt>
      <trkpt lat="48.78244" lon="-3.57803">
        <ele>6.7</ele>
        <time>2015-07-10T08:36:20.518Z</time>
      </trkpt>
      <trkpt lat="48.78245" lon="-3.57805">
        <ele>6.7</ele>
        <time>2015-07-10T08:36:20.708Z</time>
      </trkpt>
      <trkpt lat="48.78245" lon="-3.57807">
        <ele>6.7</ele>
        <time>2015-07-10T08:36:20.891Z</time>
      </trkpt>
      <trkpt lat="48.78243" lon="-3.57811">
        <ele>6.7</ele>
        <time>2015-07-10T08:36:21.199Z</time>
      </trkpt>
      <trkpt lat="48.7824" lon="-3.57815">
        <ele>6.5</ele>
        <time>2015-07-10T08:36:21.628Z</time>
      </trkpt>
      <trkpt lat="48.78235" lon="-3.57817">
        <ele>6.3</ele>
        <time>2015-07-10T08:36:22.240Z</time>
      </trkpt>
      <trkpt lat="48.78228" lon="-3.5782">
        <ele>6</ele>
        <time>2015-07-10T08:36:23.040Z</time>
      </trkpt>
      <trkpt lat="48.7822" lon="-3.57822">
        <ele>5.6</ele>
        <time>2015-07-10T08:36:23.964Z</time>
      </trkpt>
      <trkpt lat="48.78211" lon="-3.57825">
        <ele>5.1</ele>
        <time>2015-07-10T08:36:24.986Z</time>
      </trkpt>
      <trkpt lat="48.78201" lon="-3.57828">
        <ele>4.7</ele>
        <time>2015-07-10T08:36:26.113Z</time>
      </trkpt>
      <trkpt lat="48.78191" lon="-3.57831">
        <ele>4.2</ele>
        <time>2015-07-10T08:36:27.294Z</time>
      </trkpt>
      <trkpt lat="48.78181" lon="-3.57835">
        <ele>3.6</ele>
        <time>2015-07-10T08:36:28.456Z</time>
      </trkpt>
      <trkpt lat="48.78171" lon="-3.57838">
        <ele>3.3</ele>
        <time>2015-07-10T08:36:29.599Z</time>
      </trkpt>
      <trkpt lat="48.7816" lon="-3.57842">
        <ele>3</ele>
        <time>2015-07-10T08:36:30.757Z</time>
      </trkpt>
      <trkpt lat="48.7815" lon="-3.57845">
        <ele>3</ele>
        <time>2015-07-10T08:36:31.922Z</time>
      </trkpt>
      <trkpt lat="48.7814" lon="-3.57849">
        <ele>3</ele>
        <time>2015-07-10T08:36:33.047Z</time>
      </trkpt>
      <trkpt lat="48.78131" lon="-3.57853">
        <ele>3</ele>
        <time>2015-07-10T08:36:34.152Z</time>
      </trkpt>
      <trkpt lat="48.78122" lon="-3.57855">
        <ele>3</ele>
        <time>2015-07-10T08:36:35.187Z</time>
      </trkpt>
      <trkpt lat="48.78112" lon="-3.57858">
        <ele>3</ele>
        <time>2015-07-10T08:36:36.249Z</time>
      </trkpt>
      <trkpt lat="48.78103" lon="-3.57861">
        <ele>3</ele>
        <time>2015-07-10T08:36:37.331Z</time>
      </trkpt>
      <trkpt lat="48.78092" lon="-3.57865">
        <ele>3</ele>
        <time>2015-07-10T08:36:38.504Z</time>
      </trkpt>
      <trkpt lat="48.78082" lon="-3.57869">
        <ele>3.1</ele>
        <time>2015-07-10T08:36:39.742Z</time>
      </trkpt>
      <trkpt lat="48.7807" lon="-3.57873">
        <ele>3.6</ele>
        <time>2015-07-10T08:36:41.043Z</time>
      </trkpt>
      <trkpt lat="48.78058" lon="-3.57877">
        <ele>4.2</ele>
        <time>2015-07-10T08:36:42.411Z</time>
      </trkpt>
      <trkpt lat="48.78045" lon="-3.57882">
        <ele>4.8</ele>
        <time>2015-07-10T08:36:43.897Z</time>
      </trkpt>
      <trkpt lat="48.78032" lon="-3.57887">
        <ele>5.5</ele>
        <time>2015-07-10T08:36:45.441Z</time>
      </trkpt>
      <trkpt lat="48.78018" lon="-3.57892">
        <ele>6.2</ele>
        <time>2015-07-10T08:36:47.062Z</time>
      </trkpt>
      <trkpt lat="48.78003" lon="-3.57897">
        <ele>6.9</ele>
        <time>2015-07-10T08:36:48.735Z</time>
      </trkpt>
      <trkpt lat="48.77988" lon="-3.57903">
        <ele>7.1</ele>
        <time>2015-07-10T08:36:50.477Z</time>
      </trkpt>
      <trkpt lat="48.77972" lon="-3.57909">
        <ele>7.2</ele>
        <time>2015-07-10T08:36:52.258Z</time>
      </trkpt>
      <trkpt lat="48.77957" lon="-3.57914">
        <ele>7.1</ele>
        <time>2015-07-10T08:36:53.991Z</time>
      </trkpt>
      <trkpt lat="48.77942" lon="-3.5792">
        <ele>7</ele>
        <time>2015-07-10T08:36:55.708Z</time>
      </trkpt>
      <trkpt lat="48.77927" lon="-3.57925">
        <ele>7</ele>
        <time>2015-07-10T08:36:57.379Z</time>
      </trkpt>
      <trkpt lat="48.77913" lon="-3.5793">
        <ele>7.3</ele>
        <time>2015-07-10T08:36:59.001Z</time>
      </trkpt>
      <trkpt lat="48.77899" lon="-3.57934">
        <ele>8.6</ele>
        <time>2015-07-10T08:37:00.588Z</time>
      </trkpt>
      <trkpt lat="48.77885" lon="-3.57936">
        <ele>9.7</ele>
        <time>2015-07-10T08:37:02.141Z</time>
      </trkpt>
      <trkpt lat="48.77871" lon="-3.57937">
        <ele>10.9</ele>
        <time>2015-07-10T08:37:03.701Z</time>
      </trkpt>
      <trkpt lat="48.77857" lon="-3.57936">
        <ele>12.2</ele>
        <time>2015-07-10T08:37:05.267Z</time>
      </trkpt>
      <trkpt lat="48.77844" lon="-3.57934">
        <ele>13.5</ele>
        <time>2015-07-10T08:37:06.780Z</time>
      </trkpt>
      <trkpt lat="48.77832" lon="-3.57932">
        <ele>14.6</ele>
        <time>2015-07-10T08:37:08.167Z</time>
      </trkpt>
      <trkpt lat="48.77821" lon="-3.57929">
        <ele>15.5</ele>
        <time>2015-07-10T08:37:09.386Z</time>
      </trkpt>
      <trkpt lat="48.77812" lon="-3.57927">
        <ele>16.3</ele>
        <time>2015-07-10T08:37:10.381Z</time>
      </trkpt>
      <trkpt lat="48.77805" lon="-3.57927">
        <ele>16.9</ele>
        <time>2015-07-10T08:37:11.198Z</time>
      </trkpt>
      <trkpt lat="48.77799" lon="-3.5793">
        <ele>17.3</ele>
        <time>2015-07-10T08:37:11.897Z</time>
      </trkpt>
      <trkpt lat="48.77795" lon="-3.57936">
        <ele>17.5</ele>
        <time>2015-07-10T08:37:12.543Z</time>
      </trkpt>
      <trkpt lat="48.77792" lon="-3.57946">
        <ele>17.6</ele>
        <time>2015-07-10T08:37:13.269Z</time>
      </trkpt>
      <trkpt lat="48.77793" lon="-3.57957">
        <ele>17.4</ele>
        <time>2015-07-10T08:37:14.124Z</time>
      </trkpt>
      <trkpt lat="48.77794" lon="-3.57971">
        <ele>17.1</ele>
        <time>2015-07-10T08:37:15.109Z</time>
      </trkpt>
      <trkpt lat="48.77796" lon="-3.57985">
        <ele>16.6</ele>
        <time>2015-07-10T08:37:16.183Z</time>
      </trkpt>
      <trkpt lat="48.77798" lon="-3.58">
        <ele>16.2</ele>
        <time>2015-07-10T08:37:17.312Z</time>
      </trkpt>
      <trkpt lat="48.778" lon="-3.58015">
        <ele>16.1</ele>
        <time>2015-07-10T08:37:18.413Z</time>
      </trkpt>
      <trkpt lat="48.77802" lon="-3.58028">
        <ele>15.8</ele>
        <time>2015-07-10T08:37:19.442Z</time>
      </trkpt>
      <trkpt lat="48.77806" lon="-3.5804">
        <ele>15.4</ele>
        <time>2015-07-10T08:37:20.406Z</time>
      </trkpt>
      <trkpt lat="48.77809" lon="-3.58052">
        <ele>15.2</ele>
        <time>2015-07-10T08:37:21.333Z</time>
      </trkpt>
      <trkpt lat="48.77809" lon="-3.58065">
        <ele>15.1</ele>
        <time>2015-07-10T08:37:22.279Z</time>
      </trkpt>
      <trkpt lat="48.77808" lon="-3.58078">
        <ele>15.3</ele>
        <time>2015-07-10T08:37:23.246Z</time>
      </trkpt>
      <trkpt lat="48.77804" lon="-3.5809">
        <ele>23.2</ele>
        <time>2015-07-10T08:37:24.479Z</time>
      </trkpt>
      <trkpt lat="48.77799" lon="-3.581">
        <ele>23.6</ele>
        <time>2015-07-10T08:37:25.440Z</time>
      </trkpt>
      <trkpt lat="48.77791" lon="-3.58106">
        <ele>23.8</ele>
        <time>2015-07-10T08:37:26.444Z</time>
      </trkpt>
      <trkpt lat="48.77781" lon="-3.58109">
        <ele>23.9</ele>
        <time>2015-07-10T08:37:27.493Z</time>
      </trkpt>
      <trkpt lat="48.77772" lon="-3.58109">
        <ele>23.9</ele>
        <time>2015-07-10T08:37:28.573Z</time>
      </trkpt>
      <trkpt lat="48.77762" lon="-3.58109">
        <ele>23.9</ele>
        <time>2015-07-10T08:37:29.630Z</time>
      </trkpt>
      <trkpt lat="48.77753" lon="-3.58111">
        <ele>24</ele>
        <time>2015-07-10T08:37:30.690Z</time>
      </trkpt>
      <trkpt lat="48.77743" lon="-3.58114">
        <ele>24.7</ele>
        <time>2015-07-10T08:37:31.790Z</time>
      </trkpt>
      <trkpt lat="48.77733" lon="-3.58119">
        <ele>25.8</ele>
        <time>2015-07-10T08:37:32.931Z</time>
      </trkpt>
      <trkpt lat="48.77724" lon="-3.58127">
        <ele>26.9</ele>
        <time>2015-07-10T08:37:34.108Z</time>
      </trkpt>
      <trkpt lat="48.77716" lon="-3.58135">
        <ele>28</ele>
        <time>2015-07-10T08:37:35.228Z</time>
      </trkpt>
      <trkpt lat="48.77708" lon="-3.58143">
        <ele>29.1</ele>
        <time>2015-07-10T08:37:36.301Z</time>
      </trkpt>
      <trkpt lat="48.77698" lon="-3.58147">
        <ele>30.1</ele>
        <time>2015-07-10T08:37:37.394Z</time>
      </trkpt>
      <trkpt lat="48.77688" lon="-3.5815">
        <ele>31.2</ele>
        <time>2015-07-10T08:37:38.580Z</time>
      </trkpt>
      <trkpt lat="48.77677" lon="-3.58152">
        <ele>32.3</ele>
        <time>2015-07-10T08:37:39.765Z</time>
      </trkpt>
      <trkpt lat="48.77667" lon="-3.58155">
        <ele>33.4</ele>
        <time>2015-07-10T08:37:40.977Z</time>
      </trkpt>
      <trkpt lat="48.77655" lon="-3.58158">
        <ele>33.9</ele>
        <time>2015-07-10T08:37:42.276Z</time>
      </trkpt>
      <trkpt lat="48.77643" lon="-3.58161">
        <ele>34.3</ele>
        <time>2015-07-10T08:37:43.661Z</time>
      </trkpt>
      <trkpt lat="48.7763" lon="-3.58163">
        <ele>34.7</ele>
        <time>2015-07-10T08:37:45.098Z</time>
      </trkpt>
      <trkpt lat="48.77617" lon="-3.58165">
        <ele>35.1</ele>
        <time>2015-07-10T08:37:46.514Z</time>
      </trkpt>
      <trkpt lat="48.77605" lon="-3.58166">
        <ele>35.5</ele>
        <time>2015-07-10T08:37:47.928Z</time>
      </trkpt>
      <trkpt lat="48.77593" lon="-3.58169">
        <ele>35.8</ele>
        <time>2015-07-10T08:37:49.252Z</time>
      </trkpt>
      <trkpt lat="48.77581" lon="-3.58173">
        <ele>36</ele>
        <time>2015-07-10T08:37:50.585Z</time>
      </trkpt>
      <trkpt lat="48.7757" lon="-3.58178">
        <ele>35.3</ele>
        <time>2015-07-10T08:37:51.930Z</time>
      </trkpt>
      <trkpt lat="48.77558" lon="-3.58185">
        <ele>34.5</ele>
        <time>2015-07-10T08:37:53.321Z</time>
      </trkpt>
      <trkpt lat="48.77546" lon="-3.58191">
        <ele>33.7</ele>
        <time>2015-07-10T08:37:54.730Z</time>
      </trkpt>
      <trkpt lat="48.77534" lon="-3.58197">
        <ele>32.8</ele>
        <time>2015-07-10T08:37:56.115Z</time>
      </trkpt>
      <trkpt lat="48.77522" lon="-3.58202">
        <ele>31.8</ele>
        <time>2015-07-10T08:37:57.515Z</time>
      </trkpt>
      <trkpt lat="48.7751" lon="-3.58206">
        <ele>30.8</ele>
        <time>2015-07-10T08:37:58.926Z</time>
      </trkpt>
      <trkpt lat="48.77497" lon="-3.5821">
        <ele>29.8</ele>
        <time>2015-07-10T08:38:00.362Z</time>
      </trkpt>
      <trkpt lat="48.77484" lon="-3.58214">
        <ele>28.7</ele>
        <time>2015-07-10T08:38:01.808Z</time>
      </trkpt>
      <trkpt lat="48.77472" lon="-3.58219">
        <ele>27.7</ele>
        <time>2015-07-10T08:38:03.188Z</time>
      </trkpt>
      <trkpt lat="48.77461" lon="-3.58223">
        <ele>26.6</ele>
        <time>2015-07-10T08:38:04.475Z</time>
      </trkpt>
      <trkpt lat="48.77451" lon="-3.58228">
        <ele>25.5</ele>
        <time>2015-07-10T08:38:05.709Z</time>
      </trkpt>
      <trkpt lat="48.77441" lon="-3.58236">
        <ele>24.2</ele>
        <time>2015-07-10T08:38:06.931Z</time>
      </trkpt>
      <trkpt lat="48.77432" lon="-3.58247">
        <ele>22.7</ele>
        <time>2015-07-10T08:38:08.219Z</time>
      </trkpt>
      <trkpt lat="48.77423" lon="-3.58258">
        <ele>20.5</ele>
        <time>2015-07-10T08:38:09.520Z</time>
      </trkpt>
      <trkpt lat="48.77414" lon="-3.58268">
        <ele>18.4</ele>
        <time>2015-07-10T08:38:10.783Z</time>
      </trkpt>
      <trkpt lat="48.77406" lon="-3.58275">
        <ele>17</ele>
        <time>2015-07-10T08:38:11.845Z</time>
      </trkpt>
      <trkpt lat="48.77399" lon="-3.58279">
        <ele>16</ele>
        <time>2015-07-10T08:38:12.712Z</time>
      </trkpt>
      <trkpt lat="48.77394" lon="-3.58283">
        <ele>15.3</ele>
        <time>2015-07-10T08:38:13.313Z</time>
      </trkpt>
      <trkpt lat="48.77391" lon="-3.58285">
        <ele>14.9</ele>
        <time>2015-07-10T08:38:13.681Z</time>
      </trkpt>
      <trkpt lat="48.77389" lon="-3.58287">
        <ele>14.7</ele>
        <time>2015-07-10T08:38:13.895Z</time>
      </trkpt>
      <trkpt lat="48.77388" lon="-3.58287">
        <ele>14.5</ele>
        <time>2015-07-10T08:38:14.001Z</time>
      </trkpt>
      <trkpt lat="48.77388" lon="-3.58288">
        <ele>14.5</ele>
        <time>2015-07-10T08:38:14.063Z</time>
      </trkpt>
      <trkpt lat="48.77388" lon="-3.58289">
        <ele>14.3</ele>
        <time>2015-07-10T08:38:14.147Z</time>
      </trkpt>
      <trkpt lat="48.77387" lon="-3.58289">
        <ele>14.3</ele>
        <time>2015-07-10T08:38:14.187Z</time>
      </trkpt>
      <trkpt lat="48.77386" lon="-3.58289">
        <ele>14.2</ele>
        <time>2015-07-10T08:38:14.297Z</time>
      </trkpt>
      <trkpt lat="48.77385" lon="-3.58288">
        <ele>14.3</ele>
        <time>2015-07-10T08:38:14.470Z</time>
      </trkpt>
      <trkpt lat="48.77383" lon="-3.58286">
        <ele>14.4</ele>
        <time>2015-07-10T08:38:14.684Z</time>
      </trkpt>
      <trkpt lat="48.77382" lon="-3.58283">
        <ele>14.8</ele>
        <time>2015-07-10T08:38:14.992Z</time>
      </trkpt>
      <trkpt lat="48.77381" lon="-3.58278">
        <ele>15.2</ele>
        <time>2015-07-10T08:38:15.372Z</time>
      </trkpt>
      <trkpt lat="48.77379" lon="-3.58272">
        <ele>15.9</ele>
        <time>2015-07-10T08:38:15.852Z</time>
      </trkpt>
      <trkpt lat="48.77376" lon="-3.58266">
        <ele>16.4</ele>
        <time>2015-07-10T08:38:16.419Z</time>
      </trkpt>
      <trkpt lat="48.77371" lon="-3.58261">
        <ele>16.8</ele>
        <time>2015-07-10T08:38:17.076Z</time>
      </trkpt>
      <trkpt lat="48.77364" lon="-3.58258">
        <ele>16.7</ele>
        <time>2015-07-10T08:38:17.825Z</time>
      </trkpt>
      <trkpt lat="48.77356" lon="-3.58257">
        <ele>16.6</ele>
        <time>2015-07-10T08:38:18.689Z</time>
      </trkpt>
      <trkpt lat="48.77349" lon="-3.58254">
        <ele>16.4</ele>
        <time>2015-07-10T08:38:19.582Z</time>
      </trkpt>
      <trkpt lat="48.7734" lon="-3.58252">
        <ele>16.3</ele>
        <time>2015-07-10T08:38:20.510Z</time>
      </trkpt>
      <trkpt lat="48.77333" lon="-3.58248">
        <ele>16.1</ele>
        <time>2015-07-10T08:38:21.413Z</time>
      </trkpt>
      <trkpt lat="48.77325" lon="-3.58243">
        <ele>16.7</ele>
        <time>2015-07-10T08:38:22.333Z</time>
      </trkpt>
      <trkpt lat="48.77319" lon="-3.58234">
        <ele>17.7</ele>
        <time>2015-07-10T08:38:23.273Z</time>
      </trkpt>
      <trkpt lat="48.77313" lon="-3.58224">
        <ele>18.7</ele>
        <time>2015-07-10T08:38:24.271Z</time>
      </trkpt>
      <trkpt lat="48.77307" lon="-3.58213">
        <ele>19.9</ele>
        <time>2015-07-10T08:38:25.320Z</time>
      </trkpt>
      <trkpt lat="48.77301" lon="-3.58201">
        <ele>21.2</ele>
        <time>2015-07-10T08:38:26.411Z</time>
      </trkpt>
      <trkpt lat="48.77296" lon="-3.5819">
        <ele>22.5</ele>
        <time>2015-07-10T08:38:27.459Z</time>
      </trkpt>
      <trkpt lat="48.7729" lon="-3.58178">
        <ele>23.7</ele>
        <time>2015-07-10T08:38:28.487Z</time>
      </trkpt>
      <trkpt lat="48.77286" lon="-3.58168">
        <ele>24.9</ele>
        <time>2015-07-10T08:38:29.424Z</time>
      </trkpt>
      <trkpt lat="48.77281" lon="-3.58159">
        <ele>25.2</ele>
        <time>2015-07-10T08:38:30.262Z</time>
      </trkpt>
      <trkpt lat="48.77275" lon="-3.58151">
        <ele>25.5</ele>
        <time>2015-07-10T08:38:31.127Z</time>
      </trkpt>
      <trkpt lat="48.7727" lon="-3.58141">
        <ele>25.8</ele>
        <time>2015-07-10T08:38:32.043Z</time>
      </trkpt>
      <trkpt lat="48.77264" lon="-3.5813">
        <ele>26.2</ele>
        <time>2015-07-10T08:38:33.057Z</time>
      </trkpt>
      <trkpt lat="48.77258" lon="-3.58118">
        <ele>26.7</ele>
        <time>2015-07-10T08:38:34.172Z</time>
      </trkpt>
      <trkpt lat="48.77253" lon="-3.58105">
        <ele>27.2</ele>
        <time>2015-07-10T08:38:35.345Z</time>
      </trkpt>
      <trkpt lat="48.77247" lon="-3.58091">
        <ele>27.8</ele>
        <time>2015-07-10T08:38:36.547Z</time>
      </trkpt>
      <trkpt lat="48.77241" lon="-3.58077">
        <ele>28.4</ele>
        <time>2015-07-10T08:38:37.724Z</time>
      </trkpt>
      <trkpt lat="48.77236" lon="-3.58064">
        <ele>28.8</ele>
        <time>2015-07-10T08:38:38.842Z</time>
      </trkpt>
      <trkpt lat="48.77232" lon="-3.58051">
        <ele>29.2</ele>
        <time>2015-07-10T08:38:39.900Z</time>
      </trkpt>
      <trkpt lat="48.77228" lon="-3.58039">
        <ele>29.6</ele>
        <time>2015-07-10T08:38:40.919Z</time>
      </trkpt>
      <trkpt lat="48.77224" lon="-3.58026">
        <ele>30.1</ele>
        <time>2015-07-10T08:38:41.949Z</time>
      </trkpt>
      <trkpt lat="48.7722" lon="-3.58013">
        <ele>30.5</ele>
        <time>2015-07-10T08:38:43.005Z</time>
      </trkpt>
      <trkpt lat="48.77215" lon="-3.58001">
        <ele>31.1</ele>
        <time>2015-07-10T08:38:44.069Z</time>
      </trkpt>
      <trkpt lat="48.7721" lon="-3.57987">
        <ele>31.4</ele>
        <time>2015-07-10T08:38:45.183Z</time>
      </trkpt>
      <trkpt lat="48.77205" lon="-3.57974">
        <ele>31.7</ele>
        <time>2015-07-10T08:38:46.321Z</time>
      </trkpt>
      <trkpt lat="48.77201" lon="-3.57959">
        <ele>31.8</ele>
        <time>2015-07-10T08:38:47.478Z</time>
      </trkpt>
      <trkpt lat="48.77198" lon="-3.57944">
        <ele>31.9</ele>
        <time>2015-07-10T08:38:48.610Z</time>
      </trkpt>
      <trkpt lat="48.77196" lon="-3.5793">
        <ele>32</ele>
        <time>2015-07-10T08:38:49.696Z</time>
      </trkpt>
      <trkpt lat="48.77193" lon="-3.57917">
        <ele>32.1</ele>
        <time>2015-07-10T08:38:50.681Z</time>
      </trkpt>
      <trkpt lat="48.7719" lon="-3.57905">
        <ele>32.3</ele>
        <time>2015-07-10T08:38:51.631Z</time>
      </trkpt>
      <trkpt lat="48.77185" lon="-3.57894">
        <ele>32.5</ele>
        <time>2015-07-10T08:38:52.639Z</time>
      </trkpt>
      <trkpt lat="48.77179" lon="-3.57881">
        <ele>32.9</ele>
        <time>2015-07-10T08:38:53.771Z</time>
      </trkpt>
      <trkpt lat="48.77173" lon="-3.57867">
        <ele>33.3</ele>
        <time>2015-07-10T08:38:54.957Z</time>
      </trkpt>
      <trkpt lat="48.77168" lon="-3.57854">
        <ele>33.7</ele>
        <time>2015-07-10T08:38:56.109Z</time>
      </trkpt>
      <trkpt lat="48.77162" lon="-3.57842">
        <ele>34.1</ele>
        <time>2015-07-10T08:38:57.244Z</time>
      </trkpt>
      <trkpt lat="48.77156" lon="-3.5783">
        <ele>34.6</ele>
        <time>2015-07-10T08:38:58.339Z</time>
      </trkpt>
      <trkpt lat="48.77149" lon="-3.57819">
        <ele>35</ele>
        <time>2015-07-10T08:38:59.401Z</time>
      </trkpt>
      <trkpt lat="48.77143" lon="-3.57809">
        <ele>35.3</ele>
        <time>2015-07-10T08:39:00.386Z</time>
      </trkpt>
      <trkpt lat="48.77137" lon="-3.57801">
        <ele>35.7</ele>
        <time>2015-07-10T08:39:01.278Z</time>
      </trkpt>
      <trkpt lat="48.77133" lon="-3.57794">
        <ele>35.9</ele>
        <time>2015-07-10T08:39:02.002Z</time>
      </trkpt>
      <trkpt lat="48.77129" lon="-3.57789">
        <ele>36.1</ele>
        <time>2015-07-10T08:39:02.547Z</time>
      </trkpt>
      <trkpt lat="48.77127" lon="-3.57786">
        <ele>36.2</ele>
        <time>2015-07-10T08:39:02.898Z</time>
      </trkpt>
      <trkpt lat="48.77126" lon="-3.57784">
        <ele>36.3</ele>
        <time>2015-07-10T08:39:03.096Z</time>
      </trkpt>
      <trkpt lat="48.77125" lon="-3.57783">
        <ele>36.3</ele>
        <time>2015-07-10T08:39:03.199Z</time>
      </trkpt>
      <trkpt lat="48.77123" lon="-3.57781">
        <ele>36.4</ele>
        <time>2015-07-10T08:39:03.446Z</time>
      </trkpt>
      <trkpt lat="48.7712" lon="-3.57778">
        <ele>36.5</ele>
        <time>2015-07-10T08:39:03.845Z</time>
      </trkpt>
      <trkpt lat="48.77116" lon="-3.57774">
        <ele>36.7</ele>
        <time>2015-07-10T08:39:04.350Z</time>
      </trkpt>
      <trkpt lat="48.77111" lon="-3.5777">
        <ele>36.9</ele>
        <time>2015-07-10T08:39:05.017Z</time>
      </trkpt>
      <trkpt lat="48.77104" lon="-3.57766">
        <ele>37.2</ele>
        <time>2015-07-10T08:39:05.850Z</time>
      </trkpt>
      <trkpt lat="48.77096" lon="-3.57763">
        <ele>37.5</ele>
        <time>2015-07-10T08:39:06.781Z</time>
      </trkpt>
      <trkpt lat="48.77087" lon="-3.57762">
        <ele>37.9</ele>
        <time>2015-07-10T08:39:07.809Z</time>
      </trkpt>
      <trkpt lat="48.77076" lon="-3.57761">
        <ele>38.3</ele>
        <time>2015-07-10T08:39:08.994Z</time>
      </trkpt>
      <trkpt lat="48.77064" lon="-3.5776">
        <ele>38.8</ele>
        <time>2015-07-10T08:39:10.352Z</time>
      </trkpt>
      <trkpt lat="48.77051" lon="-3.57759">
        <ele>39.4</ele>
        <time>2015-07-10T08:39:11.778Z</time>
      </trkpt>
      <trkpt lat="48.77038" lon="-3.57758">
        <ele>40</ele>
        <time>2015-07-10T08:39:13.265Z</time>
      </trkpt>
      <trkpt lat="48.77024" lon="-3.57758">
        <ele>40.6</ele>
        <time>2015-07-10T08:39:14.826Z</time>
      </trkpt>
      <trkpt lat="48.77009" lon="-3.57758">
        <ele>41.2</ele>
        <time>2015-07-10T08:39:16.478Z</time>
      </trkpt>
      <trkpt lat="48.76994" lon="-3.5776">
        <ele>41.9</ele>
        <time>2015-07-10T08:39:18.128Z</time>
      </trkpt>
      <trkpt lat="48.76979" lon="-3.57764">
        <ele>42.5</ele>
        <time>2015-07-10T08:39:19.784Z</time>
      </trkpt>
      <trkpt lat="48.76965" lon="-3.57769">
        <ele>43.2</ele>
        <time>2015-07-10T08:39:21.486Z</time>
      </trkpt>
      <trkpt lat="48.7695" lon="-3.57776">
        <ele>43.7</ele>
        <time>2015-07-10T08:39:23.232Z</time>
      </trkpt>
      <trkpt lat="48.76935" lon="-3.57784">
        <ele>44.2</ele>
        <time>2015-07-10T08:39:24.999Z</time>
      </trkpt>
      <trkpt lat="48.7692" lon="-3.57792">
        <ele>44.8</ele>
        <time>2015-07-10T08:39:26.768Z</time>
      </trkpt>
      <trkpt lat="48.76904" lon="-3.578">
        <ele>45.1</ele>
        <time>2015-07-10T08:39:28.564Z</time>
      </trkpt>
      <trkpt lat="48.76888" lon="-3.57807">
        <ele>45.6</ele>
        <time>2015-07-10T08:39:30.436Z</time>
      </trkpt>
      <trkpt lat="48.76871" lon="-3.57812">
        <ele>46.3</ele>
        <time>2015-07-10T08:39:32.349Z</time>
      </trkpt>
      <trkpt lat="48.76854" lon="-3.57815">
        <ele>47.2</ele>
        <time>2015-07-10T08:39:34.328Z</time>
      </trkpt>
      <trkpt lat="48.76836" lon="-3.57815">
        <ele>48.1</ele>
        <time>2015-07-10T08:39:36.278Z</time>
      </trkpt>
      <trkpt lat="48.76819" lon="-3.57812">
        <ele>48.6</ele>
        <time>2015-07-10T08:39:38.219Z</time>
      </trkpt>
      <trkpt lat="48.76802" lon="-3.57807">
        <ele>49.3</ele>
        <time>2015-07-10T08:39:40.137Z</time>
      </trkpt>
      <trkpt lat="48.76785" lon="-3.57799">
        <ele>50.1</ele>
        <time>2015-07-10T08:39:42.067Z</time>
      </trkpt>
      <trkpt lat="48.76769" lon="-3.57788">
        <ele>51.3</ele>
        <time>2015-07-10T08:39:44.018Z</time>
      </trkpt>
      <trkpt lat="48.76754" lon="-3.57776">
        <ele>52.9</ele>
        <time>2015-07-10T08:39:45.985Z</time>
      </trkpt>
      <trkpt lat="48.76739" lon="-3.5776">
        <ele>54.2</ele>
        <time>2015-07-10T08:39:47.958Z</time>
      </trkpt>
      <trkpt lat="48.76726" lon="-3.57743">
        <ele>55.2</ele>
        <time>2015-07-10T08:39:49.904Z</time>
      </trkpt>
      <trkpt lat="48.76713" lon="-3.57725">
        <ele>55.8</ele>
        <time>2015-07-10T08:39:51.826Z</time>
      </trkpt>
      <trkpt lat="48.76702" lon="-3.57706">
        <ele>56.8</ele>
        <time>2015-07-10T08:39:53.710Z</time>
      </trkpt>
      <trkpt lat="48.76692" lon="-3.57686">
        <ele>57.9</ele>
        <time>2015-07-10T08:39:55.566Z</time>
      </trkpt>
      <trkpt lat="48.76682" lon="-3.57666">
        <ele>59.3</ele>
        <time>2015-07-10T08:39:57.404Z</time>
      </trkpt>
      <trkpt lat="48.76672" lon="-3.57647">
        <ele>59.6</ele>
        <time>2015-07-10T08:39:59.224Z</time>
      </trkpt>
      <trkpt lat="48.76661" lon="-3.57628">
        <ele>59.2</ele>
        <time>2015-07-10T08:40:01.053Z</time>
      </trkpt>
      <trkpt lat="48.76648" lon="-3.57611">
        <ele>58.6</ele>
        <time>2015-07-10T08:40:02.911Z</time>
      </trkpt>
      <trkpt lat="48.76635" lon="-3.57595">
        <ele>58.4</ele>
        <time>2015-07-10T08:40:04.779Z</time>
      </trkpt>
      <trkpt lat="48.76621" lon="-3.57582">
        <ele>58.4</ele>
        <time>2015-07-10T08:40:06.650Z</time>
      </trkpt>
      <trkpt lat="48.76605" lon="-3.57572">
        <ele>58.6</ele>
        <time>2015-07-10T08:40:08.535Z</time>
      </trkpt>
      <trkpt lat="48.76589" lon="-3.57564">
        <ele>58.6</ele>
        <time>2015-07-10T08:40:10.448Z</time>
      </trkpt>
      <trkpt lat="48.76572" lon="-3.57558">
        <ele>58.5</ele>
        <time>2015-07-10T08:40:12.372Z</time>
      </trkpt>
      <trkpt lat="48.76555" lon="-3.57554">
        <ele>58.6</ele>
        <time>2015-07-10T08:40:14.281Z</time>
      </trkpt>
      <trkpt lat="48.76538" lon="-3.57552">
        <ele>58.6</ele>
        <time>2015-07-10T08:40:16.157Z</time>
      </trkpt>
      <trkpt lat="48.76521" lon="-3.57551">
        <ele>58.6</ele>
        <time>2015-07-10T08:40:18.052Z</time>
      </trkpt>
      <trkpt lat="48.76505" lon="-3.57551">
        <ele>58.6</ele>
        <time>2015-07-10T08:40:19.868Z</time>
      </trkpt>
      <trkpt lat="48.76489" lon="-3.57551">
        <ele>58.9</ele>
        <time>2015-07-10T08:40:21.667Z</time>
      </trkpt>
      <trkpt lat="48.76472" lon="-3.57551">
        <ele>59.5</ele>
        <time>2015-07-10T08:40:23.500Z</time>
      </trkpt>
      <trkpt lat="48.76455" lon="-3.57551">
        <ele>60</ele>
        <time>2015-07-10T08:40:25.370Z</time>
      </trkpt>
      <trkpt lat="48.76439" lon="-3.57552">
        <ele>60.5</ele>
        <time>2015-07-10T08:40:27.226Z</time>
      </trkpt>
      <trkpt lat="48.76422" lon="-3.57552">
        <ele>61.1</ele>
        <time>2015-07-10T08:40:29.065Z</time>
      </trkpt>
      <trkpt lat="48.76405" lon="-3.57552">
        <ele>61.1</ele>
        <time>2015-07-10T08:40:30.918Z</time>
      </trkpt>
      <trkpt lat="48.76388" lon="-3.57551">
        <ele>60.8</ele>
        <time>2015-07-10T08:40:32.807Z</time>
      </trkpt>
      <trkpt lat="48.76371" lon="-3.5755">
        <ele>60.8</ele>
        <time>2015-07-10T08:40:34.737Z</time>
      </trkpt>
      <trkpt lat="48.76354" lon="-3.57546">
        <ele>60.8</ele>
        <time>2015-07-10T08:40:36.703Z</time>
      </trkpt>
      <trkpt lat="48.76336" lon="-3.57541">
        <ele>61</ele>
        <time>2015-07-10T08:40:38.716Z</time>
      </trkpt>
      <trkpt lat="48.76318" lon="-3.57535">
        <ele>61.5</ele>
        <time>2015-07-10T08:40:40.735Z</time>
      </trkpt>
      <trkpt lat="48.76301" lon="-3.57528">
        <ele>62</ele>
        <time>2015-07-10T08:40:42.698Z</time>
      </trkpt>
      <trkpt lat="48.76285" lon="-3.5752">
        <ele>62.6</ele>
        <time>2015-07-10T08:40:44.532Z</time>
      </trkpt>
      <trkpt lat="48.76272" lon="-3.57513">
        <ele>63.1</ele>
        <time>2015-07-10T08:40:46.146Z</time>
      </trkpt>
      <trkpt lat="48.7626" lon="-3.57506">
        <ele>63.6</ele>
        <time>2015-07-10T08:40:47.571Z</time>
      </trkpt>
      <trkpt lat="48.76249" lon="-3.575">
        <ele>64</ele>
        <time>2015-07-10T08:40:48.847Z</time>
      </trkpt>
      <trkpt lat="48.76239" lon="-3.57495">
        <ele>63.9</ele>
        <time>2015-07-10T08:40:50.006Z</time>
      </trkpt>
      <trkpt lat="48.7622" lon="-3.57485">
        <ele>63.9</ele>
        <time>2015-07-10T08:40:52.226Z</time>
      </trkpt>
      <trkpt lat="48.76144" lon="-3.57609">
        <ele>56.4</ele>
        <time>2015-07-10T08:41:04.696Z</time>
      </trkpt>
      <trkpt lat="48.7601" lon="-3.5774">
        <ele>58.6</ele>
        <time>2015-07-10T08:41:22.377Z</time>
      </trkpt>
      <trkpt lat="48.76139" lon="-3.5759">
        <ele>58.7</ele>
        <time>2015-07-10T08:41:40.441Z</time>
      </trkpt>
      <trkpt lat="48.76208" lon="-3.57493">
        <ele>63.6</ele>
        <time>2015-07-10T08:41:50.883Z</time>
      </trkpt>
      <trkpt lat="48.76208" lon="-3.57474">
        <ele>64</ele>
        <time>2015-07-10T08:41:52.313Z</time>
      </trkpt>
      <trkpt lat="48.76327" lon="-3.57304">
        <ele>67.7</ele>
        <time>2015-07-10T08:42:10.480Z</time>
      </trkpt>
      <trkpt lat="48.7643" lon="-3.57125">
        <ele>71.3</ele>
        <time>2015-07-10T08:42:27.897Z</time>
      </trkpt>
      <trkpt lat="48.76435" lon="-3.5698">
        <ele>76</ele>
        <time>2015-07-10T08:42:38.568Z</time>
      </trkpt>
      <trkpt lat="48.7653" lon="-3.56832">
        <ele>77.6</ele>
        <time>2015-07-10T08:42:53.645Z</time>
      </trkpt>
      <trkpt lat="48.76543" lon="-3.56674">
        <ele>75.7</ele>
        <time>2015-07-10T08:43:05.321Z</time>
      </trkpt>
      <trkpt lat="48.76603" lon="-3.56542">
        <ele>76.2</ele>
        <time>2015-07-10T08:43:17.125Z</time>
      </trkpt>
      <trkpt lat="48.76649" lon="-3.56217">
        <ele>76.8</ele>
        <time>2015-07-10T08:43:41.491Z</time>
      </trkpt>
      <trkpt lat="48.7664" lon="-3.55772">
        <ele>82.2</ele>
        <time>2015-07-10T08:44:14.122Z</time>
      </trkpt>
      <trkpt lat="48.76524" lon="-3.55589">
        <ele>85.5</ele>
        <time>2015-07-10T08:44:32.685Z</time>
      </trkpt>
      <trkpt lat="48.76483" lon="-3.55557">
        <ele>86.1</ele>
        <time>2015-07-10T08:44:37.825Z</time>
      </trkpt>
      <trkpt lat="48.76412" lon="-3.55358">
        <ele>89.7</ele>
        <time>2015-07-10T08:44:54.404Z</time>
      </trkpt>
      <trkpt lat="48.76337" lon="-3.55285">
        <ele>89.6</ele>
        <time>2015-07-10T08:45:04.385Z</time>
      </trkpt>
      <trkpt lat="48.76334" lon="-3.55247">
        <ele>90</ele>
        <time>2015-07-10T08:45:07.147Z</time>
      </trkpt>
      <trkpt lat="48.76309" lon="-3.5519">
        <ele>90.7</ele>
        <time>2015-07-10T08:45:12.195Z</time>
      </trkpt>
      <trkpt lat="48.76188" lon="-3.55145">
        <ele>89.6</ele>
        <time>2015-07-10T08:45:26.090Z</time>
      </trkpt>
      <trkpt lat="48.76133" lon="-3.55116">
        <ele>89.2</ele>
        <time>2015-07-10T08:45:32.620Z</time>
      </trkpt>
      <trkpt lat="48.76014" lon="-3.55109">
        <ele>88.9</ele>
        <time>2015-07-10T08:45:45.755Z</time>
      </trkpt>
      <trkpt lat="48.75882" lon="-3.55069">
        <ele>91.1</ele>
        <time>2015-07-10T08:46:00.788Z</time>
      </trkpt>
      <trkpt lat="48.7589" lon="-3.54938">
        <ele>91.3</ele>
        <time>2015-07-10T08:46:10.480Z</time>
      </trkpt>
      <trkpt lat="48.75854" lon="-3.547">
        <ele>94.9</ele>
        <time>2015-07-10T08:46:28.365Z</time>
      </trkpt>
      <trkpt lat="48.75839" lon="-3.54662">
        <ele>96.1</ele>
        <time>2015-07-10T08:46:31.665Z</time>
      </trkpt>
      <trkpt lat="48.75768" lon="-3.5463">
        <ele>97.2</ele>
        <time>2015-07-10T08:46:39.862Z</time>
      </trkpt>
      <trkpt lat="48.75681" lon="-3.54631">
        <ele>95.4</ele>
        <time>2015-07-10T08:46:49.514Z</time>
      </trkpt>
      <trkpt lat="48.75629" lon="-3.54552">
        <ele>94.7</ele>
        <time>2015-07-10T08:46:57.710Z</time>
      </trkpt>
      <trkpt lat="48.75619" lon="-3.54514">
        <ele>94.9</ele>
        <time>2015-07-10T08:47:00.729Z</time>
      </trkpt>
      <trkpt lat="48.75623" lon="-3.54493">
        <ele>95</ele>
        <time>2015-07-10T08:47:02.362Z</time>
      </trkpt>
      <trkpt lat="48.7564" lon="-3.54423">
        <ele>95</ele>
        <time>2015-07-10T08:47:07.837Z</time>
      </trkpt>
      <trkpt lat="48.75643" lon="-3.54402">
        <ele>95</ele>
        <time>2015-07-10T08:47:09.416Z</time>
      </trkpt>
      <trkpt lat="48.75648" lon="-3.54381">
        <ele>94.9</ele>
        <time>2015-07-10T08:47:11.022Z</time>
      </trkpt>
      <trkpt lat="48.75654" lon="-3.5436">
        <ele>94.9</ele>
        <time>2015-07-10T08:47:12.715Z</time>
      </trkpt>
      <trkpt lat="48.7566" lon="-3.54338">
        <ele>94.9</ele>
        <time>2015-07-10T08:47:14.475Z</time>
      </trkpt>
      <trkpt lat="48.75668" lon="-3.54315">
        <ele>95.2</ele>
        <time>2015-07-10T08:47:16.317Z</time>
      </trkpt>
      <trkpt lat="48.75676" lon="-3.54292">
        <ele>95.6</ele>
        <time>2015-07-10T08:47:18.265Z</time>
      </trkpt>
      <trkpt lat="48.75684" lon="-3.54268">
        <ele>95.9</ele>
        <time>2015-07-10T08:47:20.256Z</time>
      </trkpt>
      <trkpt lat="48.75692" lon="-3.54243">
        <ele>96.3</ele>
        <time>2015-07-10T08:47:22.271Z</time>
      </trkpt>
      <trkpt lat="48.757" lon="-3.54219">
        <ele>96.2</ele>
        <time>2015-07-10T08:47:24.259Z</time>
      </trkpt>
      <trkpt lat="48.75709" lon="-3.54195">
        <ele>96.2</ele>
        <time>2015-07-10T08:47:26.262Z</time>
      </trkpt>
      <trkpt lat="48.75717" lon="-3.54171">
        <ele>96.2</ele>
        <time>2015-07-10T08:47:28.275Z</time>
      </trkpt>
      <trkpt lat="48.75726" lon="-3.54147">
        <ele>96.5</ele>
        <time>2015-07-10T08:47:30.266Z</time>
      </trkpt>
      <trkpt lat="48.75735" lon="-3.54123">
        <ele>97</ele>
        <time>2015-07-10T08:47:32.270Z</time>
      </trkpt>
      <trkpt lat="48.75741" lon="-3.54098">
        <ele>97.5</ele>
        <time>2015-07-10T08:47:34.262Z</time>
      </trkpt>
      <trkpt lat="48.75748" lon="-3.54072">
        <ele>97.9</ele>
        <time>2015-07-10T08:47:36.277Z</time>
      </trkpt>
      <trkpt lat="48.75754" lon="-3.54046">
        <ele>98.1</ele>
        <time>2015-07-10T08:47:38.319Z</time>
      </trkpt>
      <trkpt lat="48.75762" lon="-3.54021">
        <ele>98.1</ele>
        <time>2015-07-10T08:47:40.349Z</time>
      </trkpt>
      <trkpt lat="48.7577" lon="-3.53996">
        <ele>98.2</ele>
        <time>2015-07-10T08:47:42.398Z</time>
      </trkpt>
      <trkpt lat="48.75778" lon="-3.53971">
        <ele>98</ele>
        <time>2015-07-10T08:47:44.437Z</time>
      </trkpt>
      <trkpt lat="48.75786" lon="-3.53946">
        <ele>97.8</ele>
        <time>2015-07-10T08:47:46.486Z</time>
      </trkpt>
      <trkpt lat="48.75794" lon="-3.53921">
        <ele>97.6</ele>
        <time>2015-07-10T08:47:48.523Z</time>
      </trkpt>
      <trkpt lat="48.75802" lon="-3.53896">
        <ele>97.5</ele>
        <time>2015-07-10T08:47:50.547Z</time>
      </trkpt>
      <trkpt lat="48.7581" lon="-3.53871">
        <ele>97.6</ele>
        <time>2015-07-10T08:47:52.539Z</time>
      </trkpt>
      <trkpt lat="48.75818" lon="-3.53848">
        <ele>97.7</ele>
        <time>2015-07-10T08:47:54.439Z</time>
      </trkpt>
      <trkpt lat="48.75825" lon="-3.53827">
        <ele>97.8</ele>
        <time>2015-07-10T08:47:56.208Z</time>
      </trkpt>
      <trkpt lat="48.75833" lon="-3.53808">
        <ele>98</ele>
        <time>2015-07-10T08:47:57.861Z</time>
      </trkpt>
      <trkpt lat="48.75841" lon="-3.53789">
        <ele>98.5</ele>
        <time>2015-07-10T08:47:59.498Z</time>
      </trkpt>
      <trkpt lat="48.7585" lon="-3.53771">
        <ele>99.2</ele>
        <time>2015-07-10T08:48:01.173Z</time>
      </trkpt>
      <trkpt lat="48.7586" lon="-3.53753">
        <ele>99.9</ele>
        <time>2015-07-10T08:48:02.868Z</time>
      </trkpt>
      <trkpt lat="48.7587" lon="-3.53736">
        <ele>100.6</ele>
        <time>2015-07-10T08:48:04.541Z</time>
      </trkpt>
      <trkpt lat="48.75879" lon="-3.53719">
        <ele>101.3</ele>
        <time>2015-07-10T08:48:06.186Z</time>
      </trkpt>
      <trkpt lat="48.75889" lon="-3.53702">
        <ele>101.8</ele>
        <time>2015-07-10T08:48:07.793Z</time>
      </trkpt>
      <trkpt lat="48.75897" lon="-3.53687">
        <ele>102.2</ele>
        <time>2015-07-10T08:48:09.276Z</time>
      </trkpt>
      <trkpt lat="48.75905" lon="-3.53674">
        <ele>102.5</ele>
        <time>2015-07-10T08:48:10.590Z</time>
      </trkpt>
      <trkpt lat="48.75921" lon="-3.53644">
        <ele>102.5</ele>
        <time>2015-07-10T08:48:13.399Z</time>
      </trkpt>
      <trkpt lat="48.75938" lon="-3.53523">
        <ele>99.9</ele>
        <time>2015-07-10T08:48:22.454Z</time>
      </trkpt>
      <trkpt lat="48.75987" lon="-3.53346">
        <ele>100.9</ele>
        <time>2015-07-10T08:48:36.474Z</time>
      </trkpt>
      <trkpt lat="48.76047" lon="-3.53274">
        <ele>102.3</ele>
        <time>2015-07-10T08:48:45.085Z</time>
      </trkpt>
      <trkpt lat="48.76032" lon="-3.53121">
        <ele>105.1</ele>
        <time>2015-07-10T08:48:56.414Z</time>
      </trkpt>
      <trkpt lat="48.76" lon="-3.52973">
        <ele>104</ele>
        <time>2015-07-10T08:49:07.824Z</time>
      </trkpt>
      <trkpt lat="48.75963" lon="-3.52865">
        <ele>100.2</ele>
        <time>2015-07-10T08:49:16.724Z</time>
      </trkpt>
      <trkpt lat="48.7597" lon="-3.52781">
        <ele>100.5</ele>
        <time>2015-07-10T08:49:22.971Z</time>
      </trkpt>
      <trkpt lat="48.75999" lon="-3.52734">
        <ele>101.4</ele>
        <time>2015-07-10T08:49:27.594Z</time>
      </trkpt>
      <trkpt lat="48.75915" lon="-3.52657">
        <ele>101</ele>
        <time>2015-07-10T08:49:38.508Z</time>
      </trkpt>
      <trkpt lat="48.75792" lon="-3.52442">
        <ele>101.3</ele>
        <time>2015-07-10T08:49:59.330Z</time>
      </trkpt>
      <trkpt lat="48.75726" lon="-3.52595">
        <ele>100.2</ele>
        <time>2015-07-10T08:50:12.730Z</time>
      </trkpt>
      <trkpt lat="48.75643" lon="-3.52701">
        <ele>102.1</ele>
        <time>2015-07-10T08:50:24.736Z</time>
      </trkpt>
      <trkpt lat="48.7549" lon="-3.52488">
        <ele>102.9</ele>
        <time>2015-07-10T08:50:47.861Z</time>
      </trkpt>
      <trkpt lat="48.75454" lon="-3.52545">
        <ele>103</ele>
        <time>2015-07-10T08:50:53.737Z</time>
      </trkpt>
      <trkpt lat="48.75459" lon="-3.52653">
        <ele>103.5</ele>
        <time>2015-07-10T08:51:01.689Z</time>
      </trkpt>
      <trkpt lat="48.75414" lon="-3.5263">
        <ele>103</ele>
        <time>2015-07-10T08:51:06.997Z</time>
      </trkpt>
      <trkpt lat="48.75302" lon="-3.5255">
        <ele>102.8</ele>
        <time>2015-07-10T08:51:20.722Z</time>
      </trkpt>
      <trkpt lat="48.7522" lon="-3.52487">
        <ele>101.9</ele>
        <time>2015-07-10T08:51:30.970Z</time>
      </trkpt>
      <trkpt lat="48.75137" lon="-3.52434">
        <ele>101.1</ele>
        <time>2015-07-10T08:51:40.942Z</time>
      </trkpt>
      <trkpt lat="48.75063" lon="-3.52501">
        <ele>99.8</ele>
        <time>2015-07-10T08:51:50.557Z</time>
      </trkpt>
      <trkpt lat="48.75016" lon="-3.52447">
        <ele>99.8</ele>
        <time>2015-07-10T08:51:57.113Z</time>
      </trkpt>
      <trkpt lat="48.75008" lon="-3.52393">
        <ele>100.6</ele>
        <time>2015-07-10T08:52:01.219Z</time>
      </trkpt>
      <trkpt lat="48.7504" lon="-3.52281">
        <ele>102.4</ele>
        <time>2015-07-10T08:52:10.180Z</time>
      </trkpt>
      <trkpt lat="48.75035" lon="-3.52275">
        <ele>102.6</ele>
        <time>2015-07-10T08:52:10.875Z</time>
      </trkpt>
      <trkpt lat="48.75032" lon="-3.52268">
        <ele>102.7</ele>
        <time>2015-07-10T08:52:11.489Z</time>
      </trkpt>
      <trkpt lat="48.75028" lon="-3.5226">
        <ele>102.8</ele>
        <time>2015-07-10T08:52:12.203Z</time>
      </trkpt>
      <trkpt lat="48.75027" lon="-3.52247">
        <ele>103</ele>
        <time>2015-07-10T08:52:13.199Z</time>
      </trkpt>
      <trkpt lat="48.75025" lon="-3.52233">
        <ele>102.9</ele>
        <time>2015-07-10T08:52:14.195Z</time>
      </trkpt>
      <trkpt lat="48.75023" lon="-3.52217">
        <ele>102.9</ele>
        <time>2015-07-10T08:52:15.431Z</time>
      </trkpt>
      <trkpt lat="48.75022" lon="-3.52198">
        <ele>102.8</ele>
        <time>2015-07-10T08:52:16.786Z</time>
      </trkpt>
      <trkpt lat="48.7502" lon="-3.52178">
        <ele>102.8</ele>
        <time>2015-07-10T08:52:18.265Z</time>
      </trkpt>
      <trkpt lat="48.75017" lon="-3.52158">
        <ele>102.7</ele>
        <time>2015-07-10T08:52:19.779Z</time>
      </trkpt>
      <trkpt lat="48.75013" lon="-3.52138">
        <ele>102.6</ele>
        <time>2015-07-10T08:52:21.289Z</time>
      </trkpt>
      <trkpt lat="48.7501" lon="-3.52118">
        <ele>102.4</ele>
        <time>2015-07-10T08:52:22.802Z</time>
      </trkpt>
      <trkpt lat="48.75005" lon="-3.521">
        <ele>102.2</ele>
        <time>2015-07-10T08:52:24.254Z</time>
      </trkpt>
      <trkpt lat="48.75002" lon="-3.52082">
        <ele>102.1</ele>
        <time>2015-07-10T08:52:25.650Z</time>
      </trkpt>
      <trkpt lat="48.74998" lon="-3.52062">
        <ele>102.5</ele>
        <time>2015-07-10T08:52:27.165Z</time>
      </trkpt>
      <trkpt lat="48.74997" lon="-3.52042">
        <ele>103</ele>
        <time>2015-07-10T08:52:28.641Z</time>
      </trkpt>
      <trkpt lat="48.74995" lon="-3.52022">
        <ele>103.5</ele>
        <time>2015-07-10T08:52:30.120Z</time>
      </trkpt>
      <trkpt lat="48.74995" lon="-3.52002">
        <ele>104</ele>
        <time>2015-07-10T08:52:31.588Z</time>
      </trkpt>
      <trkpt lat="48.74993" lon="-3.51983">
        <ele>104.3</ele>
        <time>2015-07-10T08:52:32.945Z</time>
      </trkpt>
      <trkpt lat="48.74988" lon="-3.51963">
        <ele>104.5</ele>
        <time>2015-07-10T08:52:34.512Z</time>
      </trkpt>
      <trkpt lat="48.74983" lon="-3.51943">
        <ele>104.7</ele>
        <time>2015-07-10T08:52:36.081Z</time>
      </trkpt>
      <trkpt lat="48.74977" lon="-3.51925">
        <ele>104.9</ele>
        <time>2015-07-10T08:52:37.615Z</time>
      </trkpt>
      <trkpt lat="48.74968" lon="-3.51903">
        <ele>104.9</ele>
        <time>2015-07-10T08:52:39.456Z</time>
      </trkpt>
      <trkpt lat="48.7496" lon="-3.51883">
        <ele>104.6</ele>
        <time>2015-07-10T08:52:41.189Z</time>
      </trkpt>
      <trkpt lat="48.74953" lon="-3.51862">
        <ele>104.3</ele>
        <time>2015-07-10T08:52:42.945Z</time>
      </trkpt>
      <trkpt lat="48.74945" lon="-3.5184">
        <ele>103.8</ele>
        <time>2015-07-10T08:52:44.785Z</time>
      </trkpt>
      <trkpt lat="48.74938" lon="-3.51818">
        <ele>103.6</ele>
        <time>2015-07-10T08:52:46.537Z</time>
      </trkpt>
      <trkpt lat="48.74933" lon="-3.51797">
        <ele>103.6</ele>
        <time>2015-07-10T08:52:48.219Z</time>
      </trkpt>
      <trkpt lat="48.74928" lon="-3.51775">
        <ele>103.7</ele>
        <time>2015-07-10T08:52:49.904Z</time>
      </trkpt>
      <trkpt lat="48.74925" lon="-3.5175">
        <ele>103.9</ele>
        <time>2015-07-10T08:52:51.772Z</time>
      </trkpt>
      <trkpt lat="48.74922" lon="-3.51725">
        <ele>104.2</ele>
        <time>2015-07-10T08:52:53.641Z</time>
      </trkpt>
      <trkpt lat="48.7492" lon="-3.51702">
        <ele>104.5</ele>
        <time>2015-07-10T08:52:55.363Z</time>
      </trkpt>
      <trkpt lat="48.74917" lon="-3.51677">
        <ele>104.9</ele>
        <time>2015-07-10T08:52:57.233Z</time>
      </trkpt>
      <trkpt lat="48.74913" lon="-3.51652">
        <ele>104.8</ele>
        <time>2015-07-10T08:52:59.104Z</time>
      </trkpt>
      <trkpt lat="48.7491" lon="-3.51627">
        <ele>104.4</ele>
        <time>2015-07-10T08:53:00.977Z</time>
      </trkpt>
      <trkpt lat="48.74905" lon="-3.51602">
        <ele>104</ele>
        <time>2015-07-10T08:53:02.891Z</time>
      </trkpt>
      <trkpt lat="48.74902" lon="-3.51577">
        <ele>103.8</ele>
        <time>2015-07-10T08:53:04.760Z</time>
      </trkpt>
      <trkpt lat="48.74898" lon="-3.51552">
        <ele>103.5</ele>
        <time>2015-07-10T08:53:06.630Z</time>
      </trkpt>
      <trkpt lat="48.74895" lon="-3.51527">
        <ele>103.2</ele>
        <time>2015-07-10T08:53:08.500Z</time>
      </trkpt>
      <trkpt lat="48.74895" lon="-3.51502">
        <ele>103</ele>
        <time>2015-07-10T08:53:10.335Z</time>
      </trkpt>
      <trkpt lat="48.74893" lon="-3.51477">
        <ele>102.9</ele>
        <time>2015-07-10T08:53:12.175Z</time>
      </trkpt>
      <trkpt lat="48.74892" lon="-3.51453">
        <ele>102.8</ele>
        <time>2015-07-10T08:53:13.897Z</time>
      </trkpt>
      <trkpt lat="48.74887" lon="-3.51428">
        <ele>102.7</ele>
        <time>2015-07-10T08:53:15.814Z</time>
      </trkpt>
      <trkpt lat="48.7488" lon="-3.51405">
        <ele>102.5</ele>
        <time>2015-07-10T08:53:17.676Z</time>
      </trkpt>
      <trkpt lat="48.74873" lon="-3.51382">
        <ele>102.3</ele>
        <time>2015-07-10T08:53:19.542Z</time>
      </trkpt>
      <trkpt lat="48.74868" lon="-3.51357">
        <ele>102</ele>
        <time>2015-07-10T08:53:21.458Z</time>
      </trkpt>
      <trkpt lat="48.74863" lon="-3.51332">
        <ele>101.7</ele>
        <time>2015-07-10T08:53:23.372Z</time>
      </trkpt>
      <trkpt lat="48.74858" lon="-3.51307">
        <ele>101.6</ele>
        <time>2015-07-10T08:53:25.288Z</time>
      </trkpt>
      <trkpt lat="48.74853" lon="-3.51283">
        <ele>101.5</ele>
        <time>2015-07-10T08:53:27.086Z</time>
      </trkpt>
      <trkpt lat="48.7485" lon="-3.5126">
        <ele>101.4</ele>
        <time>2015-07-10T08:53:28.838Z</time>
      </trkpt>
      <trkpt lat="48.74847" lon="-3.51238">
        <ele>101.3</ele>
        <time>2015-07-10T08:53:30.468Z</time>
      </trkpt>
      <trkpt lat="48.74845" lon="-3.5122">
        <ele>101.3</ele>
        <time>2015-07-10T08:53:31.824Z</time>
      </trkpt>
      <trkpt lat="48.74843" lon="-3.51202">
        <ele>101.2</ele>
        <time>2015-07-10T08:53:33.183Z</time>
      </trkpt>
      <trkpt lat="48.74843" lon="-3.51183">
        <ele>101.2</ele>
        <time>2015-07-10T08:53:34.527Z</time>
      </trkpt>
      <trkpt lat="48.74843" lon="-3.51162">
        <ele>101.3</ele>
        <time>2015-07-10T08:53:36.113Z</time>
      </trkpt>
      <trkpt lat="48.74843" lon="-3.5114">
        <ele>101.6</ele>
        <time>2015-07-10T08:53:37.707Z</time>
      </trkpt>
      <trkpt lat="48.74843" lon="-3.51117">
        <ele>101.8</ele>
        <time>2015-07-10T08:53:39.412Z</time>
      </trkpt>
      <trkpt lat="48.74843" lon="-3.51093">
        <ele>102.1</ele>
        <time>2015-07-10T08:53:41.125Z</time>
      </trkpt>
      <trkpt lat="48.74843" lon="-3.51068">
        <ele>102.3</ele>
        <time>2015-07-10T08:53:42.958Z</time>
      </trkpt>
      <trkpt lat="48.74845" lon="-3.51045">
        <ele>102.3</ele>
        <time>2015-07-10T08:53:44.679Z</time>
      </trkpt>
      <trkpt lat="48.74847" lon="-3.51022">
        <ele>102.4</ele>
        <time>2015-07-10T08:53:46.401Z</time>
      </trkpt>
      <trkpt lat="48.74848" lon="-3.50998">
        <ele>102.6</ele>
        <time>2015-07-10T08:53:48.119Z</time>
      </trkpt>
      <trkpt lat="48.74848" lon="-3.50975">
        <ele>102.8</ele>
        <time>2015-07-10T08:53:49.831Z</time>
      </trkpt>
      <trkpt lat="48.74847" lon="-3.50953">
        <ele>103</ele>
        <time>2015-07-10T08:53:51.432Z</time>
      </trkpt>
      <trkpt lat="48.74843" lon="-3.50932">
        <ele>103.1</ele>
        <time>2015-07-10T08:53:53.064Z</time>
      </trkpt>
      <trkpt lat="48.74838" lon="-3.5091">
        <ele>103.2</ele>
        <time>2015-07-10T08:53:54.745Z</time>
      </trkpt>
      <trkpt lat="48.7483" lon="-3.5089">
        <ele>103.2</ele>
        <time>2015-07-10T08:53:56.480Z</time>
      </trkpt>
      <trkpt lat="48.74822" lon="-3.5087">
        <ele>103.3</ele>
        <time>2015-07-10T08:53:58.215Z</time>
      </trkpt>
      <trkpt lat="48.74813" lon="-3.5085">
        <ele>103.3</ele>
        <time>2015-07-10T08:53:59.949Z</time>
      </trkpt>
      <trkpt lat="48.74805" lon="-3.50828">
        <ele>103.2</ele>
        <time>2015-07-10T08:54:01.789Z</time>
      </trkpt>
      <trkpt lat="48.748" lon="-3.50805">
        <ele>102.7</ele>
        <time>2015-07-10T08:54:03.588Z</time>
      </trkpt>
      <trkpt lat="48.74797" lon="-3.5078">
        <ele>102.1</ele>
        <time>2015-07-10T08:54:05.459Z</time>
      </trkpt>
      <trkpt lat="48.74795" lon="-3.50753">
        <ele>101.6</ele>
        <time>2015-07-10T08:54:07.422Z</time>
      </trkpt>
      <trkpt lat="48.74793" lon="-3.50725">
        <ele>101.7</ele>
        <time>2015-07-10T08:54:09.507Z</time>
      </trkpt>
      <trkpt lat="48.74793" lon="-3.50697">
        <ele>101.9</ele>
        <time>2015-07-10T08:54:11.587Z</time>
      </trkpt>
      <trkpt lat="48.74792" lon="-3.50668">
        <ele>102</ele>
        <time>2015-07-10T08:54:13.672Z</time>
      </trkpt>
      <trkpt lat="48.7479" lon="-3.50642">
        <ele>102.1</ele>
        <time>2015-07-10T08:54:15.637Z</time>
      </trkpt>
      <trkpt lat="48.74788" lon="-3.50618">
        <ele>102.2</ele>
        <time>2015-07-10T08:54:17.356Z</time>
      </trkpt>
      <trkpt lat="48.74785" lon="-3.50597">
        <ele>102.3</ele>
        <time>2015-07-10T08:54:18.989Z</time>
      </trkpt>
      <trkpt lat="48.74778" lon="-3.50575">
        <ele>102.4</ele>
        <time>2015-07-10T08:54:20.742Z</time>
      </trkpt>
      <trkpt lat="48.74768" lon="-3.50555">
        <ele>102.6</ele>
        <time>2015-07-10T08:54:22.584Z</time>
      </trkpt>
      <trkpt lat="48.74757" lon="-3.50537">
        <ele>102.6</ele>
        <time>2015-07-10T08:54:24.448Z</time>
      </trkpt>
      <trkpt lat="48.74743" lon="-3.50517">
        <ele>102.7</ele>
        <time>2015-07-10T08:54:26.535Z</time>
      </trkpt>
      <trkpt lat="48.7473" lon="-3.50497">
        <ele>102.8</ele>
        <time>2015-07-10T08:54:28.622Z</time>
      </trkpt>
      <trkpt lat="48.74717" lon="-3.50475">
        <ele>102.5</ele>
        <time>2015-07-10T08:54:30.795Z</time>
      </trkpt>
      <trkpt lat="48.74703" lon="-3.50455">
        <ele>102.1</ele>
        <time>2015-07-10T08:54:32.881Z</time>
      </trkpt>
      <trkpt lat="48.7469" lon="-3.50433">
        <ele>101.7</ele>
        <time>2015-07-10T08:54:35.050Z</time>
      </trkpt>
      <trkpt lat="48.74675" lon="-3.50412">
        <ele>101.1</ele>
        <time>2015-07-10T08:54:37.355Z</time>
      </trkpt>
      <trkpt lat="48.74662" lon="-3.5039">
        <ele>100.6</ele>
        <time>2015-07-10T08:54:39.533Z</time>
      </trkpt>
      <trkpt lat="48.74648" lon="-3.5037">
        <ele>100.2</ele>
        <time>2015-07-10T08:54:41.616Z</time>
      </trkpt>
      <trkpt lat="48.74635" lon="-3.50348">
        <ele>100</ele>
        <time>2015-07-10T08:54:43.787Z</time>
      </trkpt>
      <trkpt lat="48.74622" lon="-3.50327">
        <ele>100</ele>
        <time>2015-07-10T08:54:45.960Z</time>
      </trkpt>
      <trkpt lat="48.74608" lon="-3.50305">
        <ele>99.8</ele>
        <time>2015-07-10T08:54:48.133Z</time>
      </trkpt>
      <trkpt lat="48.74593" lon="-3.50283">
        <ele>99.5</ele>
        <time>2015-07-10T08:54:50.435Z</time>
      </trkpt>
      <trkpt lat="48.7458" lon="-3.50262">
        <ele>99.1</ele>
        <time>2015-07-10T08:54:52.611Z</time>
      </trkpt>
      <trkpt lat="48.74567" lon="-3.5024">
        <ele>98.9</ele>
        <time>2015-07-10T08:54:54.783Z</time>
      </trkpt>
      <trkpt lat="48.74552" lon="-3.50218">
        <ele>98.9</ele>
        <time>2015-07-10T08:54:57.085Z</time>
      </trkpt>
      <trkpt lat="48.74538" lon="-3.50197">
        <ele>98.8</ele>
        <time>2015-07-10T08:54:59.261Z</time>
      </trkpt>
      <trkpt lat="48.74525" lon="-3.50175">
        <ele>98.6</ele>
        <time>2015-07-10T08:55:01.434Z</time>
      </trkpt>
      <trkpt lat="48.74512" lon="-3.50153">
        <ele>98</ele>
        <time>2015-07-10T08:55:03.608Z</time>
      </trkpt>
      <trkpt lat="48.74498" lon="-3.50133">
        <ele>97.1</ele>
        <time>2015-07-10T08:55:05.696Z</time>
      </trkpt>
      <trkpt lat="48.74487" lon="-3.50115">
        <ele>96.1</ele>
        <time>2015-07-10T08:55:07.564Z</time>
      </trkpt>
      <trkpt lat="48.74475" lon="-3.50098">
        <ele>95.1</ele>
        <time>2015-07-10T08:55:09.352Z</time>
      </trkpt>
      <trkpt lat="48.74467" lon="-3.50087">
        <ele>94.5</ele>
        <time>2015-07-10T08:55:10.612Z</time>
      </trkpt>
      <trkpt lat="48.74458" lon="-3.50082">
        <ele>94</ele>
        <time>2015-07-10T08:55:11.612Z</time>
      </trkpt>
      <trkpt lat="48.74453" lon="-3.50078">
        <ele>93.7</ele>
        <time>2015-07-10T08:55:12.220Z</time>
      </trkpt>
      <trkpt lat="48.74448" lon="-3.50077">
        <ele>93.5</ele>
        <time>2015-07-10T08:55:12.786Z</time>
      </trkpt>
      <trkpt lat="48.74447" lon="-3.50075">
        <ele>93.4</ele>
        <time>2015-07-10T08:55:13.013Z</time>
      </trkpt>
      <trkpt lat="48.74445" lon="-3.50073">
        <ele>93.3</ele>
        <time>2015-07-10T08:55:13.230Z</time>
      </trkpt>
      <trkpt lat="48.74443" lon="-3.50068">
        <ele>93.2</ele>
        <time>2015-07-10T08:55:13.645Z</time>
      </trkpt>
      <trkpt lat="48.74443" lon="-3.50058">
        <ele>93.2</ele>
        <time>2015-07-10T08:55:14.379Z</time>
      </trkpt>
      <trkpt lat="48.74443" lon="-3.50047">
        <ele>93.1</ele>
        <time>2015-07-10T08:55:15.232Z</time>
      </trkpt>
      <trkpt lat="48.74443" lon="-3.50033">
        <ele>93.1</ele>
        <time>2015-07-10T08:55:16.211Z</time>
      </trkpt>
      <trkpt lat="48.74445" lon="-3.50018">
        <ele>93.1</ele>
        <time>2015-07-10T08:55:17.326Z</time>
      </trkpt>
      <trkpt lat="48.74447" lon="-3.5">
        <ele>93.1</ele>
        <time>2015-07-10T08:55:18.682Z</time>
      </trkpt>
      <trkpt lat="48.7445" lon="-3.4998">
        <ele>93.2</ele>
        <time>2015-07-10T08:55:20.194Z</time>
      </trkpt>
      <trkpt lat="48.74455" lon="-3.49958">
        <ele>93.4</ele>
        <time>2015-07-10T08:55:21.880Z</time>
      </trkpt>
      <trkpt lat="48.74462" lon="-3.49937">
        <ele>93.6</ele>
        <time>2015-07-10T08:55:23.633Z</time>
      </trkpt>
      <trkpt lat="48.74468" lon="-3.49913">
        <ele>93.8</ele>
        <time>2015-07-10T08:55:25.499Z</time>
      </trkpt>
      <trkpt lat="48.74475" lon="-3.49888">
        <ele>93.5</ele>
        <time>2015-07-10T08:55:27.475Z</time>
      </trkpt>
      <trkpt lat="48.74482" lon="-3.49863">
        <ele>93.2</ele>
        <time>2015-07-10T08:55:29.451Z</time>
      </trkpt>
      <trkpt lat="48.74487" lon="-3.49837">
        <ele>92.8</ele>
        <time>2015-07-10T08:55:31.486Z</time>
      </trkpt>
      <trkpt lat="48.74492" lon="-3.4981">
        <ele>92</ele>
        <time>2015-07-10T08:55:33.518Z</time>
      </trkpt>
      <trkpt lat="48.74497" lon="-3.49782">
        <ele>91.1</ele>
        <time>2015-07-10T08:55:35.673Z</time>
      </trkpt>
      <trkpt lat="48.74502" lon="-3.49753">
        <ele>90.3</ele>
        <time>2015-07-10T08:55:37.825Z</time>
      </trkpt>
      <trkpt lat="48.74507" lon="-3.49727">
        <ele>90.8</ele>
        <time>2015-07-10T08:55:39.858Z</time>
      </trkpt>
      <trkpt lat="48.74512" lon="-3.49698">
        <ele>91.5</ele>
        <time>2015-07-10T08:55:42.009Z</time>
      </trkpt>
      <trkpt lat="48.74515" lon="-3.49672">
        <ele>92</ele>
        <time>2015-07-10T08:55:43.999Z</time>
      </trkpt>
      <trkpt lat="48.74515" lon="-3.49643">
        <ele>92.8</ele>
        <time>2015-07-10T08:55:46.080Z</time>
      </trkpt>
      <trkpt lat="48.74515" lon="-3.49615">
        <ele>93.6</ele>
        <time>2015-07-10T08:55:48.158Z</time>
      </trkpt>
      <trkpt lat="48.74513" lon="-3.4959">
        <ele>94.3</ele>
        <time>2015-07-10T08:55:50.001Z</time>
      </trkpt>
      <trkpt lat="48.7451" lon="-3.49563">
        <ele>94.8</ele>
        <time>2015-07-10T08:55:51.992Z</time>
      </trkpt>
      <trkpt lat="48.7451" lon="-3.49538">
        <ele>95.4</ele>
        <time>2015-07-10T08:55:53.826Z</time>
      </trkpt>
      <trkpt lat="48.7451" lon="-3.49515">
        <ele>95.9</ele>
        <time>2015-07-10T08:55:55.539Z</time>
      </trkpt>
      <trkpt lat="48.74513" lon="-3.4949">
        <ele>96.5</ele>
        <time>2015-07-10T08:55:57.409Z</time>
      </trkpt>
      <trkpt lat="48.7452" lon="-3.49467">
        <ele>97.3</ele>
        <time>2015-07-10T08:55:59.276Z</time>
      </trkpt>
      <trkpt lat="48.74528" lon="-3.49445">
        <ele>98</ele>
        <time>2015-07-10T08:56:01.116Z</time>
      </trkpt>
      <trkpt lat="48.74537" lon="-3.49425">
        <ele>98.7</ele>
        <time>2015-07-10T08:56:02.852Z</time>
      </trkpt>
      <trkpt lat="48.74547" lon="-3.49403">
        <ele>99.1</ele>
        <time>2015-07-10T08:56:04.792Z</time>
      </trkpt>
      <trkpt lat="48.74555" lon="-3.49383">
        <ele>99.3</ele>
        <time>2015-07-10T08:56:06.529Z</time>
      </trkpt>
      <trkpt lat="48.74563" lon="-3.49362">
        <ele>99.5</ele>
        <time>2015-07-10T08:56:08.366Z</time>
      </trkpt>
      <trkpt lat="48.7457" lon="-3.49342">
        <ele>99.7</ele>
        <time>2015-07-10T08:56:10.011Z</time>
      </trkpt>
      <trkpt lat="48.74577" lon="-3.49322">
        <ele>100</ele>
        <time>2015-07-10T08:56:11.656Z</time>
      </trkpt>
      <trkpt lat="48.7458" lon="-3.493">
        <ele>100.3</ele>
        <time>2015-07-10T08:56:13.286Z</time>
      </trkpt>
      <trkpt lat="48.74582" lon="-3.49278">
        <ele>100.6</ele>
        <time>2015-07-10T08:56:14.883Z</time>
      </trkpt>
      <trkpt lat="48.74582" lon="-3.49255">
        <ele>100.9</ele>
        <time>2015-07-10T08:56:16.596Z</time>
      </trkpt>
      <trkpt lat="48.74582" lon="-3.49232">
        <ele>100.7</ele>
        <time>2015-07-10T08:56:18.308Z</time>
      </trkpt>
      <trkpt lat="48.74583" lon="-3.49208">
        <ele>100.5</ele>
        <time>2015-07-10T08:56:20.031Z</time>
      </trkpt>
      <trkpt lat="48.74585" lon="-3.49187">
        <ele>100.3</ele>
        <time>2015-07-10T08:56:21.628Z</time>
      </trkpt>
      <trkpt lat="48.74585" lon="-3.49168">
        <ele>100.1</ele>
        <time>2015-07-10T08:56:22.972Z</time>
      </trkpt>
      <trkpt lat="48.74587" lon="-3.49153">
        <ele>100.1</ele>
        <time>2015-07-10T08:56:24.091Z</time>
      </trkpt>
      <trkpt lat="48.74587" lon="-3.49142">
        <ele>100.1</ele>
        <time>2015-07-10T08:56:24.945Z</time>
      </trkpt>
      <trkpt lat="48.74588" lon="-3.49128">
        <ele>100.2</ele>
        <time>2015-07-10T08:56:25.940Z</time>
      </trkpt>
      <trkpt lat="48.74588" lon="-3.49115">
        <ele>100.1</ele>
        <time>2015-07-10T08:56:26.917Z</time>
      </trkpt>
      <trkpt lat="48.7459" lon="-3.49098">
        <ele>100.2</ele>
        <time>2015-07-10T08:56:28.154Z</time>
      </trkpt>
      <trkpt lat="48.7459" lon="-3.49078">
        <ele>100.1</ele>
        <time>2015-07-10T08:56:29.618Z</time>
      </trkpt>
      <trkpt lat="48.74592" lon="-3.49058">
        <ele>99.9</ele>
        <time>2015-07-10T08:56:31.096Z</time>
      </trkpt>
      <trkpt lat="48.74593" lon="-3.49038">
        <ele>99.7</ele>
        <time>2015-07-10T08:56:32.576Z</time>
      </trkpt>
      <trkpt lat="48.74593" lon="-3.49015">
        <ele>99.4</ele>
        <time>2015-07-10T08:56:34.289Z</time>
      </trkpt>
      <trkpt lat="48.74593" lon="-3.48993">
        <ele>99.3</ele>
        <time>2015-07-10T08:56:35.875Z</time>
      </trkpt>
      <trkpt lat="48.74592" lon="-3.48972">
        <ele>99.5</ele>
        <time>2015-07-10T08:56:37.474Z</time>
      </trkpt>
      <trkpt lat="48.7459" lon="-3.4895">
        <ele>99.7</ele>
        <time>2015-07-10T08:56:39.074Z</time>
      </trkpt>
      <trkpt lat="48.74588" lon="-3.48932">
        <ele>99.9</ele>
        <time>2015-07-10T08:56:40.432Z</time>
      </trkpt>
      <trkpt lat="48.74588" lon="-3.48915">
        <ele>100</ele>
        <time>2015-07-10T08:56:41.655Z</time>
      </trkpt>
      <trkpt lat="48.74587" lon="-3.48903">
        <ele>99.6</ele>
        <time>2015-07-10T08:56:42.529Z</time>
      </trkpt>
      <trkpt lat="48.74583" lon="-3.48895">
        <ele>99.2</ele>
        <time>2015-07-10T08:56:43.244Z</time>
      </trkpt>
      <trkpt lat="48.74608" lon="-3.48881">
        <ele>99.2</ele>
        <time>2015-07-10T08:56:46.172Z</time>
      </trkpt>
      <trkpt lat="48.74634" lon="-3.48877">
        <ele>99.5</ele>
        <time>2015-07-10T08:56:49.041Z</time>
      </trkpt>
      <trkpt lat="48.74645" lon="-3.48829">
        <ele>98.3</ele>
        <time>2015-07-10T08:56:52.807Z</time>
      </trkpt>
      <trkpt lat="48.74697" lon="-3.48765">
        <ele>97.3</ele>
        <time>2015-07-10T08:57:00.261Z</time>
      </trkpt>
      <trkpt lat="48.74758" lon="-3.48739">
        <ele>97.8</ele>
        <time>2015-07-10T08:57:07.368Z</time>
      </trkpt>
      <trkpt lat="48.74822" lon="-3.48723">
        <ele>98.2</ele>
        <time>2015-07-10T08:57:14.564Z</time>
      </trkpt>
      <trkpt lat="48.74848" lon="-3.48615">
        <ele>99.5</ele>
        <time>2015-07-10T08:57:23.045Z</time>
      </trkpt>
      <trkpt lat="48.74842" lon="-3.48576">
        <ele>99.6</ele>
        <time>2015-07-10T08:57:25.921Z</time>
      </trkpt>
      <trkpt lat="48.74904" lon="-3.48623">
        <ele>98.7</ele>
        <time>2015-07-10T08:57:33.636Z</time>
      </trkpt>
      <trkpt lat="48.74918" lon="-3.48548">
        <ele>98.7</ele>
        <time>2015-07-10T08:57:39.321Z</time>
      </trkpt>
      <trkpt lat="48.75109" lon="-3.4851">
        <ele>93.4</ele>
        <time>2015-07-10T08:58:00.748Z</time>
      </trkpt>
      <trkpt lat="48.75148" lon="-3.48488">
        <ele>92</ele>
        <time>2015-07-10T08:58:05.474Z</time>
      </trkpt>
      <trkpt lat="48.75258" lon="-3.48466">
        <ele>87.1</ele>
        <time>2015-07-10T08:58:17.744Z</time>
      </trkpt>
      <trkpt lat="48.75302" lon="-3.48445">
        <ele>86.3</ele>
        <time>2015-07-10T08:58:22.857Z</time>
      </trkpt>
      <trkpt lat="48.75391" lon="-3.48481">
        <ele>85.2</ele>
        <time>2015-07-10T08:58:33.162Z</time>
      </trkpt>
      <trkpt lat="48.75529" lon="-3.48432">
        <ele>81.7</ele>
        <time>2015-07-10T08:58:48.939Z</time>
      </trkpt>
      <trkpt lat="48.75586" lon="-3.48434">
        <ele>79.5</ele>
        <time>2015-07-10T08:58:55.251Z</time>
      </trkpt>
      <trkpt lat="48.75645" lon="-3.48537">
        <ele>82.3</ele>
        <time>2015-07-10T08:59:05.263Z</time>
      </trkpt>
      <trkpt lat="48.75712" lon="-3.48534">
        <ele>82.6</ele>
        <time>2015-07-10T08:59:12.765Z</time>
      </trkpt>
      <trkpt lat="48.75755" lon="-3.48481">
        <ele>82.1</ele>
        <time>2015-07-10T08:59:18.897Z</time>
      </trkpt>
      <trkpt lat="48.75798" lon="-3.48296">
        <ele>80.4</ele>
        <time>2015-07-10T08:59:33.290Z</time>
      </trkpt>
      <trkpt lat="48.75872" lon="-3.48045">
        <ele>77.8</ele>
        <time>2015-07-10T08:59:53.417Z</time>
      </trkpt>
      <trkpt lat="48.76013" lon="-3.47957">
        <ele>76.5</ele>
        <time>2015-07-10T09:00:10.395Z</time>
      </trkpt>
      <trkpt lat="48.7611" lon="-3.47947">
        <ele>77</ele>
        <time>2015-07-10T09:00:21.129Z</time>
      </trkpt>
      <trkpt lat="48.76182" lon="-3.47907">
        <ele>78</ele>
        <time>2015-07-10T09:00:29.739Z</time>
      </trkpt>
      <trkpt lat="48.76407" lon="-3.47884">
        <ele>79.9</ele>
        <time>2015-07-10T09:00:54.798Z</time>
      </trkpt>
      <trkpt lat="48.76486" lon="-3.47762">
        <ele>79.9</ele>
        <time>2015-07-10T09:01:07.352Z</time>
      </trkpt>
      <trkpt lat="48.7658" lon="-3.4771">
        <ele>81.9</ele>
        <time>2015-07-10T09:01:18.454Z</time>
      </trkpt>
      <trkpt lat="48.76606" lon="-3.47596">
        <ele>83.4</ele>
        <time>2015-07-10T09:01:27.336Z</time>
      </trkpt>
      <trkpt lat="48.76588" lon="-3.47445">
        <ele>84.3</ele>
        <time>2015-07-10T09:01:38.539Z</time>
      </trkpt>
      <trkpt lat="48.76642" lon="-3.47413">
        <ele>83.3</ele>
        <time>2015-07-10T09:01:44.987Z</time>
      </trkpt>
      <trkpt lat="48.76743" lon="-3.47455">
        <ele>84</ele>
        <time>2015-07-10T09:01:56.606Z</time>
      </trkpt>
      <trkpt lat="48.76886" lon="-3.47527">
        <ele>80.2</ele>
        <time>2015-07-10T09:02:13.304Z</time>
      </trkpt>
      <trkpt lat="48.76983" lon="-3.47396">
        <ele>78.4</ele>
        <time>2015-07-10T09:02:27.783Z</time>
      </trkpt>
      <trkpt lat="48.77097" lon="-3.47309">
        <ele>77</ele>
        <time>2015-07-10T09:02:41.970Z</time>
      </trkpt>
      <trkpt lat="48.77178" lon="-3.47193">
        <ele>76.2</ele>
        <time>2015-07-10T09:02:54.317Z</time>
      </trkpt>
      <trkpt lat="48.77279" lon="-3.47046">
        <ele>73.7</ele>
        <time>2015-07-10T09:03:09.892Z</time>
      </trkpt>
      <trkpt lat="48.77319" lon="-3.46829">
        <ele>71.7</ele>
        <time>2015-07-10T09:03:26.379Z</time>
      </trkpt>
      <trkpt lat="48.77432" lon="-3.46669">
        <ele>75.2</ele>
        <time>2015-07-10T09:03:43.554Z</time>
      </trkpt>
      <trkpt lat="48.77566" lon="-3.46491">
        <ele>79.9</ele>
        <time>2015-07-10T09:04:03.402Z</time>
      </trkpt>
      <trkpt lat="48.77794" lon="-3.46223">
        <ele>78.4</ele>
        <time>2015-07-10T09:04:35.449Z</time>
      </trkpt>
      <trkpt lat="48.77949" lon="-3.46184">
        <ele>75.6</ele>
        <time>2015-07-10T09:04:52.895Z</time>
      </trkpt>
      <trkpt lat="48.77938" lon="-3.46185">
        <ele>78</ele>
        <time>2021-04-26T07:54:01Z</time>
      </trkpt>
      <trkpt lat="48.77948" lon="-3.46188">
        <ele>78</ele>
        <time>2021-04-26T07:54:03Z</time>
      </trkpt>
      <trkpt lat="48.78008" lon="-3.46221">
        <ele>77</ele>
        <time>2021-04-26T07:54:14Z</time>
      </trkpt>
      <trkpt lat="48.78127" lon="-3.46306">
        <ele>74</ele>
        <time>2021-04-26T07:54:38Z</time>
      </trkpt>
      <trkpt lat="48.78155" lon="-3.46334">
        <ele>73</ele>
        <time>2021-04-26T07:54:44Z</time>
      </trkpt>
      <trkpt lat="48.78194" lon="-3.46379">
        <ele>70</ele>
        <time>2021-04-26T07:54:52Z</time>
      </trkpt>
      <trkpt lat="48.78215" lon="-3.46401">
        <ele>68</ele>
        <time>2021-04-26T07:54:57Z</time>
      </trkpt>
      <trkpt lat="48.78295" lon="-3.46457">
        <ele>63</ele>
        <time>2021-04-26T07:55:12Z</time>
      </trkpt>
      <trkpt lat="48.78323" lon="-3.46469">
        <ele>61</ele>
        <time>2021-04-26T07:55:18Z</time>
      </trkpt>
      <trkpt lat="48.78331" lon="-3.4647">
        <ele>61</ele>
        <time>2021-04-26T07:55:19Z</time>
      </trkpt>
      <trkpt lat="48.78359" lon="-3.46468">
        <ele>60</ele>
        <time>2021-04-26T07:55:24Z</time>
      </trkpt>
      <trkpt lat="48.78383" lon="-3.46464">
        <ele>60</ele>
        <time>2021-04-26T07:55:28Z</time>
      </trkpt>
      <trkpt lat="48.7842" lon="-3.46501">
        <ele>58</ele>
        <time>2021-04-26T07:55:36Z</time>
      </trkpt>
      <trkpt lat="48.78456" lon="-3.4652">
        <ele>55</ele>
        <time>2021-04-26T07:55:43Z</time>
      </trkpt>
      <trkpt lat="48.78492" lon="-3.46541">
        <ele>52</ele>
        <time>2021-04-26T07:55:50Z</time>
      </trkpt>
      <trkpt lat="48.78535" lon="-3.46543">
        <ele>48</ele>
        <time>2021-04-26T07:55:58Z</time>
      </trkpt>
      <trkpt lat="48.78578" lon="-3.46566">
        <ele>44</ele>
        <time>2021-04-26T07:56:06Z</time>
      </trkpt>
      <trkpt lat="48.786" lon="-3.46573">
        <ele>43</ele>
        <time>2021-04-26T07:56:10Z</time>
      </trkpt>
      <trkpt lat="48.78638" lon="-3.46578">
        <ele>41</ele>
        <time>2021-04-26T07:56:16Z</time>
      </trkpt>
      <trkpt lat="48.78666" lon="-3.46577">
        <ele>40</ele>
        <time>2021-04-26T07:56:21Z</time>
      </trkpt>
      <trkpt lat="48.7867" lon="-3.46577">
        <ele>40</ele>
        <time>2021-04-26T07:56:22Z</time>
      </trkpt>
      <trkpt lat="48.78677" lon="-3.46577">
        <ele>41</ele>
        <time>2021-04-26T07:56:23Z</time>
      </trkpt>
      <trkpt lat="48.78692" lon="-3.46581">
        <ele>42</ele>
        <time>2021-04-26T07:56:26Z</time>
      </trkpt>
      <trkpt lat="48.78701" lon="-3.46589">
        <ele>43</ele>
        <time>2021-04-26T07:56:28Z</time>
      </trkpt>
      <trkpt lat="48.78719" lon="-3.46611">
        <ele>45</ele>
        <time>2021-04-26T07:56:32Z</time>
      </trkpt>
      <trkpt lat="48.78728" lon="-3.46616">
        <ele>46</ele>
        <time>2021-04-26T07:56:34Z</time>
      </trkpt>
      <trkpt lat="48.78735" lon="-3.4662">
        <ele>47</ele>
        <time>2021-04-26T07:56:35Z</time>
      </trkpt>
      <trkpt lat="48.78775" lon="-3.46641">
        <ele>51</ele>
        <time>2021-04-26T07:56:43Z</time>
      </trkpt>
      <trkpt lat="48.78813" lon="-3.46666">
        <ele>55</ele>
        <time>2021-04-26T07:56:50Z</time>
      </trkpt>
      <trkpt lat="48.78834" lon="-3.46676">
        <ele>57</ele>
        <time>2021-04-26T07:56:54Z</time>
      </trkpt>
      <trkpt lat="48.78856" lon="-3.46677">
        <ele>58</ele>
        <time>2021-04-26T07:56:58Z</time>
      </trkpt>
      <trkpt lat="48.78882" lon="-3.46673">
        <ele>58</ele>
        <time>2021-04-26T07:57:02Z</time>
      </trkpt>
      <trkpt lat="48.78894" lon="-3.46675">
        <ele>59</ele>
        <time>2021-04-26T07:57:05Z</time>
      </trkpt>
      <trkpt lat="48.78906" lon="-3.46686">
        <ele>60</ele>
        <time>2021-04-26T07:57:07Z</time>
      </trkpt>
      <trkpt lat="48.78938" lon="-3.46723">
        <ele>62</ele>
        <time>2021-04-26T07:57:14Z</time>
      </trkpt>
      <trkpt lat="48.78958" lon="-3.46746">
        <ele>62</ele>
        <time>2021-04-26T07:57:19Z</time>
      </trkpt>
      <trkpt lat="48.78974" lon="-3.4676">
        <ele>62</ele>
        <time>2021-04-26T07:57:22Z</time>
      </trkpt>
      <trkpt lat="48.78984" lon="-3.46775">
        <ele>62</ele>
        <time>2021-04-26T07:57:25Z</time>
      </trkpt>
      <trkpt lat="48.78991" lon="-3.46798">
        <ele>62</ele>
        <time>2021-04-26T07:57:27Z</time>
      </trkpt>
      <trkpt lat="48.78996" lon="-3.46828">
        <ele>62</ele>
        <time>2021-04-26T07:57:31Z</time>
      </trkpt>
      <trkpt lat="48.79005" lon="-3.46858">
        <ele>64</ele>
        <time>2021-04-26T07:57:35Z</time>
      </trkpt>
      <trkpt lat="48.79018" lon="-3.46885">
        <ele>66</ele>
        <time>2021-04-26T07:57:39Z</time>
      </trkpt>
      <trkpt lat="48.79039" lon="-3.46927">
        <ele>68</ele>
        <time>2021-04-26T07:57:45Z</time>
      </trkpt>
      <trkpt lat="48.79047" lon="-3.46941">
        <ele>68</ele>
        <time>2021-04-26T07:57:47Z</time>
      </trkpt>
      <trkpt lat="48.79059" lon="-3.4695">
        <ele>69</ele>
        <time>2021-04-26T07:57:50Z</time>
      </trkpt>
      <trkpt lat="48.7907" lon="-3.46952">
        <ele>68</ele>
        <time>2021-04-26T07:57:52Z</time>
      </trkpt>
      <trkpt lat="48.79083" lon="-3.46952">
        <ele>68</ele>
        <time>2021-04-26T07:57:54Z</time>
      </trkpt>
      <trkpt lat="48.79114" lon="-3.46947">
        <ele>70</ele>
        <time>2021-04-26T07:57:59Z</time>
      </trkpt>
      <trkpt lat="48.79138" lon="-3.46951">
        <ele>71</ele>
        <time>2021-04-26T07:58:04Z</time>
      </trkpt>
      <trkpt lat="48.79151" lon="-3.46954">
        <ele>71</ele>
        <time>2021-04-26T07:58:06Z</time>
      </trkpt>
      <trkpt lat="48.79173" lon="-3.46954">
        <ele>72</ele>
        <time>2021-04-26T07:58:10Z</time>
      </trkpt>
      <trkpt lat="48.79184" lon="-3.46957">
        <ele>73</ele>
        <time>2021-04-26T07:58:12Z</time>
      </trkpt>
      <trkpt lat="48.79242" lon="-3.47009">
        <ele>75</ele>
        <time>2021-04-26T07:58:24Z</time>
      </trkpt>
      <trkpt lat="48.79302" lon="-3.47052">
        <ele>76</ele>
        <time>2021-04-26T07:58:36Z</time>
      </trkpt>
      <trkpt lat="48.79313" lon="-3.47062">
        <ele>76</ele>
        <time>2021-04-26T07:58:38Z</time>
      </trkpt>
      <trkpt lat="48.7932" lon="-3.47065">
        <ele>76</ele>
        <time>2021-04-26T07:58:39Z</time>
      </trkpt>
      <trkpt lat="48.79324" lon="-3.47065">
        <ele>76</ele>
        <time>2021-04-26T07:58:40Z</time>
      </trkpt>
      <trkpt lat="48.79324" lon="-3.4708">
        <ele>77</ele>
        <time>2021-04-26T07:58:42Z</time>
      </trkpt>
      <trkpt lat="48.79341" lon="-3.47084">
        <ele>77</ele>
        <time>2021-04-26T07:58:45Z</time>
      </trkpt>
      <trkpt lat="48.79374" lon="-3.47084">
        <ele>77</ele>
        <time>2021-04-26T07:58:51Z</time>
      </trkpt>
      <trkpt lat="48.79388" lon="-3.47087">
        <ele>77</ele>
        <time>2021-04-26T07:58:53Z</time>
      </trkpt>
      <trkpt lat="48.79401" lon="-3.47092">
        <ele>77</ele>
        <time>2021-04-26T07:58:56Z</time>
      </trkpt>
      <trkpt lat="48.79424" lon="-3.4711">
        <ele>77</ele>
        <time>2021-04-26T07:59:00Z</time>
      </trkpt>
      <trkpt lat="48.79497" lon="-3.47141">
        <ele>75</ele>
        <time>2021-04-26T07:59:14Z</time>
      </trkpt>
      <trkpt lat="48.79526" lon="-3.4715">
        <ele>75</ele>
        <time>2021-04-26T07:59:19Z</time>
      </trkpt>
      <trkpt lat="48.79583" lon="-3.47198">
        <ele>75</ele>
        <time>2021-04-26T07:59:31Z</time>
      </trkpt>
      <trkpt lat="48.79599" lon="-3.47209">
        <ele>75</ele>
        <time>2021-04-26T07:59:34Z</time>
      </trkpt>
      <trkpt lat="48.79668" lon="-3.47233">
        <ele>75</ele>
        <time>2021-04-26T07:59:46Z</time>
      </trkpt>
      <trkpt lat="48.79717" lon="-3.47252">
        <ele>77</ele>
        <time>2021-04-26T07:59:55Z</time>
      </trkpt>
      <trkpt lat="48.79734" lon="-3.47261">
        <ele>78</ele>
        <time>2021-04-26T07:59:59Z</time>
      </trkpt>
      <trkpt lat="48.79796" lon="-3.47306">
        <ele>80</ele>
        <time>2021-04-26T08:00:11Z</time>
      </trkpt>
      <trkpt lat="48.79815" lon="-3.47316">
        <ele>81</ele>
        <time>2021-04-26T08:00:14Z</time>
      </trkpt>
      <trkpt lat="48.7984" lon="-3.47315">
        <ele>82</ele>
        <time>2021-04-26T08:00:19Z</time>
      </trkpt>
      <trkpt lat="48.79883" lon="-3.47308">
        <ele>82</ele>
        <time>2021-04-26T08:00:27Z</time>
      </trkpt>
      <trkpt lat="48.7992" lon="-3.47297">
        <ele>82</ele>
        <time>2021-04-26T08:00:33Z</time>
      </trkpt>
      <trkpt lat="48.79955" lon="-3.47296">
        <ele>82</ele>
        <time>2021-04-26T08:00:39Z</time>
      </trkpt>
      <trkpt lat="48.80044" lon="-3.47317">
        <ele>84</ele>
        <time>2021-04-26T08:00:55Z</time>
      </trkpt>
      <trkpt lat="48.80063" lon="-3.47318">
        <ele>84</ele>
        <time>2021-04-26T08:00:59Z</time>
      </trkpt>
      <trkpt lat="48.80096" lon="-3.47334">
        <ele>85</ele>
        <time>2021-04-26T08:01:05Z</time>
      </trkpt>
      <trkpt lat="48.80102" lon="-3.4734">
        <ele>85</ele>
        <time>2021-04-26T08:01:06Z</time>
      </trkpt>
      <trkpt lat="48.80185" lon="-3.47382">
        <ele>83</ele>
        <time>2021-04-26T08:01:22Z</time>
      </trkpt>
      <trkpt lat="48.80236" lon="-3.47402">
        <ele>82</ele>
        <time>2021-04-26T08:01:31Z</time>
      </trkpt>
      <trkpt lat="48.80266" lon="-3.47406">
        <ele>82</ele>
        <time>2021-04-26T08:01:37Z</time>
      </trkpt>
      <trkpt lat="48.80308" lon="-3.47403">
        <ele>83</ele>
        <time>2021-04-26T08:01:44Z</time>
      </trkpt>
      <trkpt lat="48.80346" lon="-3.47405">
        <ele>83</ele>
        <time>2021-04-26T08:01:51Z</time>
      </trkpt>
      <trkpt lat="48.80364" lon="-3.4741">
        <ele>82</ele>
        <time>2021-04-26T08:01:54Z</time>
      </trkpt>
      <trkpt lat="48.80573" lon="-3.47507">
        <ele>79</ele>
        <time>2021-04-26T08:02:33Z</time>
      </trkpt>
      <trkpt lat="48.80595" lon="-3.47513">
        <ele>79</ele>
        <time>2021-04-26T08:02:37Z</time>
      </trkpt>
      <trkpt lat="48.8062" lon="-3.47516">
        <ele>78</ele>
        <time>2021-04-26T08:02:41Z</time>
      </trkpt>
      <trkpt lat="48.80701" lon="-3.47515">
        <ele>77</ele>
        <time>2021-04-26T08:02:56Z</time>
      </trkpt>
      <trkpt lat="48.80857" lon="-3.4753">
        <ele>74</ele>
        <time>2021-04-26T08:03:24Z</time>
      </trkpt>
      <trkpt lat="48.80883" lon="-3.47529">
        <ele>74</ele>
        <time>2021-04-26T08:03:28Z</time>
      </trkpt>
      <trkpt lat="48.80906" lon="-3.47525">
        <ele>73</ele>
        <time>2021-04-26T08:03:32Z</time>
      </trkpt>
      <trkpt lat="48.80953" lon="-3.47511">
        <ele>73</ele>
        <time>2021-04-26T08:03:41Z</time>
      </trkpt>
      <trkpt lat="48.81041" lon="-3.47489">
        <ele>74</ele>
        <time>2021-04-26T08:03:57Z</time>
      </trkpt>
      <trkpt lat="48.81061" lon="-3.47487">
        <ele>75</ele>
        <time>2021-04-26T08:04:00Z</time>
      </trkpt>
      <trkpt lat="48.81072" lon="-3.47487">
        <ele>75</ele>
        <time>2021-04-26T08:04:02Z</time>
      </trkpt>
      <trkpt lat="48.81122" lon="-3.47499">
        <ele>75</ele>
        <time>2021-04-26T08:04:11Z</time>
      </trkpt>
      <trkpt lat="48.81173" lon="-3.47502">
        <ele>75</ele>
        <time>2021-04-26T08:04:20Z</time>
      </trkpt>
      <trkpt lat="48.81196" lon="-3.47499">
        <ele>74</ele>
        <time>2021-04-26T08:04:25Z</time>
      </trkpt>
      <trkpt lat="48.81225" lon="-3.47488">
        <ele>73</ele>
        <time>2021-04-26T08:04:30Z</time>
      </trkpt>
      <trkpt lat="48.81266" lon="-3.47459">
        <ele>72</ele>
        <time>2021-04-26T08:04:38Z</time>
      </trkpt>
      <trkpt lat="48.81274" lon="-3.47461">
        <ele>71</ele>
        <time>2021-04-26T08:04:39Z</time>
      </trkpt>
      <trkpt lat="48.81297" lon="-3.47489">
        <ele>71</ele>
        <time>2021-04-26T08:04:45Z</time>
      </trkpt>
      <trkpt lat="48.81324" lon="-3.47498">
        <ele>69</ele>
        <time>2021-04-26T08:04:49Z</time>
      </trkpt>
      <trkpt lat="48.81429" lon="-3.47521">
        <ele>65</ele>
        <time>2021-04-26T08:05:08Z</time>
      </trkpt>
      <trkpt lat="48.8152" lon="-3.4753">
        <ele>60</ele>
        <time>2021-04-26T08:05:25Z</time>
      </trkpt>
      <trkpt lat="48.81536" lon="-3.47527">
        <ele>59</ele>
        <time>2021-04-26T08:05:27Z</time>
      </trkpt>
      <trkpt lat="48.81571" lon="-3.4754">
        <ele>57</ele>
        <time>2021-04-26T08:05:34Z</time>
      </trkpt>
      <trkpt lat="48.81645" lon="-3.4758">
        <ele>52</ele>
        <time>2021-04-26T08:05:48Z</time>
      </trkpt>
      <trkpt lat="48.81687" lon="-3.47605">
        <ele>48</ele>
        <time>2021-04-26T08:05:56Z</time>
      </trkpt>
      <trkpt lat="48.81712" lon="-3.47628">
        <ele>46</ele>
        <time>2021-04-26T08:06:01Z</time>
      </trkpt>
      <trkpt lat="48.81747" lon="-3.47653">
        <ele>43</ele>
        <time>2021-04-26T08:06:08Z</time>
      </trkpt>
      <trkpt lat="48.81764" lon="-3.47662">
        <ele>42</ele>
        <time>2021-04-26T08:06:11Z</time>
      </trkpt>
      <trkpt lat="48.81805" lon="-3.47675">
        <ele>40</ele>
        <time>2021-04-26T08:06:19Z</time>
      </trkpt>
      <trkpt lat="48.81831" lon="-3.47678">
        <ele>40</ele>
        <time>2021-04-26T08:06:23Z</time>
      </trkpt>
      <trkpt lat="48.81849" lon="-3.47678">
        <ele>40</ele>
        <time>2021-04-26T08:06:26Z</time>
      </trkpt>
      <trkpt lat="48.8186" lon="-3.47675">
        <ele>40</ele>
        <time>2021-04-26T08:06:28Z</time>
      </trkpt>
      <trkpt lat="48.81919" lon="-3.47649">
        <ele>40</ele>
        <time>2021-04-26T08:06:39Z</time>
      </trkpt>
      <trkpt lat="48.81931" lon="-3.47646">
        <ele>40</ele>
        <time>2021-04-26T08:06:42Z</time>
      </trkpt>
      <trkpt lat="48.81947" lon="-3.47647">
        <ele>40</ele>
        <time>2021-04-26T08:06:44Z</time>
      </trkpt>
      <trkpt lat="48.82011" lon="-3.47636">
        <ele>41</ele>
        <time>2021-04-26T08:06:56Z</time>
      </trkpt>
      <trkpt lat="48.82035" lon="-3.4762">
        <ele>40</ele>
        <time>2021-04-26T08:07:00Z</time>
      </trkpt>
      <trkpt lat="48.82044" lon="-3.47628">
        <ele>40</ele>
        <time>2021-04-26T08:07:02Z</time>
      </trkpt>
      <trkpt lat="48.82092" lon="-3.4765">
        <ele>39</ele>
        <time>2021-04-26T08:07:11Z</time>
      </trkpt>
      <trkpt lat="48.82103" lon="-3.47656">
        <ele>38</ele>
        <time>2021-04-26T08:07:13Z</time>
      </trkpt>
      <trkpt lat="48.82152" lon="-3.47681">
        <ele>36</ele>
        <time>2021-04-26T08:07:23Z</time>
      </trkpt>
      <trkpt lat="48.82222" lon="-3.47759">
        <ele>32</ele>
        <time>2021-04-26T08:07:38Z</time>
      </trkpt>
      <trkpt lat="48.82226" lon="-3.47764">
        <ele>32</ele>
        <time>2021-04-26T08:07:39Z</time>
      </trkpt>
      <trkpt lat="48.82234" lon="-3.47772">
        <ele>31</ele>
        <time>2021-04-26T08:07:41Z</time>
      </trkpt>
      <trkpt lat="48.82252" lon="-3.47792">
        <ele>30</ele>
        <time>2021-04-26T08:07:45Z</time>
      </trkpt>
      <trkpt lat="48.82279" lon="-3.47821">
        <ele>28</ele>
        <time>2021-04-26T08:07:50Z</time>
      </trkpt>
      <trkpt lat="48.82311" lon="-3.47857">
        <ele>26</ele>
        <time>2021-04-26T08:07:58Z</time>
      </trkpt>
      <trkpt lat="48.82319" lon="-3.47866">
        <ele>26</ele>
        <time>2021-04-26T08:07:59Z</time>
      </trkpt>
      <trkpt lat="48.82328" lon="-3.47875">
        <ele>25</ele>
        <time>2021-04-26T08:08:01Z</time>
      </trkpt>
      <trkpt lat="48.82341" lon="-3.47891">
        <ele>24</ele>
        <time>2021-04-26T08:08:04Z</time>
      </trkpt>
      <trkpt lat="48.82345" lon="-3.47899">
        <ele>24</ele>
        <time>2021-04-26T08:08:05Z</time>
      </trkpt>
      <trkpt lat="48.82391" lon="-3.47954">
        <ele>21</ele>
        <time>2021-04-26T08:08:16Z</time>
      </trkpt>
      <trkpt lat="48.82424" lon="-3.47993">
        <ele>20</ele>
        <time>2021-04-26T08:08:23Z</time>
      </trkpt>
      <trkpt lat="48.82435" lon="-3.48005">
        <ele>20</ele>
        <time>2021-04-26T08:08:26Z</time>
      </trkpt>
      <trkpt lat="48.82466" lon="-3.48032">
        <ele>21</ele>
        <time>2021-04-26T08:08:32Z</time>
      </trkpt>
      <trkpt lat="48.82581" lon="-3.48126">
        <ele>18</ele>
        <time>2021-04-26T08:08:55Z</time>
      </trkpt>
      <trkpt lat="48.82593" lon="-3.48137">
        <ele>18</ele>
        <time>2021-04-26T08:08:58Z</time>
      </trkpt>
      <trkpt lat="48.82639" lon="-3.48197">
        <ele>16</ele>
        <time>2021-04-26T08:09:09Z</time>
      </trkpt>
      <trkpt lat="48.82652" lon="-3.48213">
        <ele>16</ele>
        <time>2021-04-26T08:09:12Z</time>
      </trkpt>
      <trkpt lat="48.82707" lon="-3.48263">
        <ele>17</ele>
        <time>2021-04-26T08:09:23Z</time>
      </trkpt>
      <trkpt lat="48.82734" lon="-3.48304">
        <ele>17</ele>
        <time>2021-04-26T08:09:30Z</time>
      </trkpt>
      <trkpt lat="48.82745" lon="-3.48316">
        <ele>17</ele>
        <time>2021-04-26T08:09:32Z</time>
      </trkpt>
      <trkpt lat="48.82771" lon="-3.4834">
        <ele>16</ele>
        <time>2021-04-26T08:09:38Z</time>
      </trkpt>
      <trkpt lat="48.82781" lon="-3.48347">
        <ele>15</ele>
        <time>2021-04-26T08:09:40Z</time>
      </trkpt>
      <trkpt lat="48.82839" lon="-3.48374">
        <ele>12</ele>
        <time>2021-04-26T08:09:50Z</time>
      </trkpt>
      <trkpt lat="48.82889" lon="-3.48403">
        <ele>9</ele>
        <time>2021-04-26T08:10:00Z</time>
      </trkpt>
      <trkpt lat="48.82908" lon="-3.48411">
        <ele>8</ele>
        <time>2021-04-26T08:10:03Z</time>
      </trkpt>
      <trkpt lat="48.82934" lon="-3.48416">
        <ele>9</ele>
        <time>2021-04-26T08:10:08Z</time>
      </trkpt>
      <trkpt lat="48.82961" lon="-3.48425">
        <ele>10</ele>
        <time>2021-04-26T08:10:13Z</time>
      </trkpt>
      <trkpt lat="48.83022" lon="-3.48458">
        <ele>10</ele>
        <time>2021-04-26T08:10:24Z</time>
      </trkpt>
      <trkpt lat="48.83061" lon="-3.48471">
        <ele>10</ele>
        <time>2021-04-26T08:10:32Z</time>
      </trkpt>
      <trkpt lat="48.83076" lon="-3.48484">
        <ele>10</ele>
        <time>2021-04-26T08:10:35Z</time>
      </trkpt>
      <trkpt lat="48.83077" lon="-3.48511">
        <ele>10</ele>
        <time>2021-04-26T08:10:38Z</time>
      </trkpt>
      <trkpt lat="48.83082" lon="-3.48519">
        <ele>10</ele>
        <time>2021-04-26T08:10:39Z</time>
      </trkpt>
      <trkpt lat="48.83093" lon="-3.48533">
        <ele>10</ele>
        <time>2021-04-26T08:10:42Z</time>
      </trkpt>
      <trkpt lat="48.831" lon="-3.48523">
        <ele>10</ele>
        <time>2021-04-26T08:10:43Z</time>
      </trkpt>
      <trkpt lat="48.83112" lon="-3.48493">
        <ele>10</ele>
        <time>2021-04-26T08:10:47Z</time>
      </trkpt>
      <trkpt lat="48.8313" lon="-3.48495">
        <ele>9</ele>
        <time>2021-04-26T08:10:51Z</time>
      </trkpt>
      <trkpt lat="48.83138" lon="-3.48525">
        <ele>9</ele>
        <time>2021-04-26T08:10:54Z</time>
      </trkpt>
      <trkpt lat="48.83141" lon="-3.48526">
        <ele>9</ele>
        <time>2021-04-26T08:10:55Z</time>
      </trkpt>
      <trkpt lat="48.83169" lon="-3.48516">
        <ele>9</ele>
        <time>2021-04-26T08:11:00Z</time>
      </trkpt>
    </trkseg>
  </trk>
</gpx>